Observation data for Fritch on 08/14/2019      Previous  Date  Next       Current Mesonet Observations  Soil Data  Daily Summary Page  Observations in Plain Language
KFR1 140500Z 11014KT 26/19 A302 RMK A01 T02560186  RH  065%=      5-min Rain = 0
KFR1 140501Z 11011KT 26/19 A302 RMK A01 T02560186  RH  065%=      5-min Rain = 0
KFR1 140502Z 11011KT 26/19 A3019 RMK A01 T02560186  RH  065%=      5-min Rain = 0
KFR1 140503Z 11011KT 26/19 A3019 RMK A01 T02550186  RH  066%=      5-min Rain = 0
KFR1 140504Z 11014KT 26/19 A3019 RMK A01 T02560187  RH  066%=      5-min Rain = 0
KFR1 140505Z 11014KT 26/19 A3019 RMK A01 T02550185  RH  065%=      5-min Rain = 0
KFR1 140506Z 11012KT 26/19 A3019 RMK A01 T02560186  RH  065%=      5-min Rain = 0
KFR1 140507Z 10013KT 26/19 A302 RMK A01 T02550185  RH  065%=      5-min Rain = 0
KFR1 140508Z 08014KT 26/19 A302 RMK A01 T02550186  RH  066%=      5-min Rain = 0
KFR1 140509Z 06023G31KT 25/19 A302 RMK A01 T02540185  RH  066%=      5-min Rain = 0
KFR1 140510Z 07021G26KT 25/18 A302 RMK A01 T02510179  RH  064%=      5-min Rain = 0
KFR1 140526Z 07025KT 22/15 A3021 RMK A01 T02170145  RH  064%=      5-min Rain = 0
KFR1 140527Z 07022G32KT 22/15 A3021 RMK A01 T02160145  RH  064%=      5-min Rain = 0
KFR1 140528Z 06024G30KT 22/15 A3021 RMK A01 T02150145  RH  064%=      5-min Rain = 0
KFR1 140529Z 08023G30KT 21/14 A3022 RMK A01 T02140144  RH  064%=      5-min Rain = 0
KFR1 140530Z 07022G29KT 21/14 A3021 RMK A01 T02140144  RH  064%=      5-min Rain = 0
KFR1 140531Z 08022G27KT 21/14 A3022 RMK A01 T02140144  RH  064%=      5-min Rain = 0
KFR1 140532Z 07022KT 21/14 A3022 RMK A01 T02140144  RH  064%=      5-min Rain = 0
KFR1 140533Z 08020G26KT 21/14 A3022 RMK A01 T02130143  RH  064%=      5-min Rain = 0
KFR1 140534Z 07021G28KT 21/14 A3022 RMK A01 T02130144  RH  065%=      5-min Rain = 0
KFR1 140535Z 07020KT 21/14 A3022 RMK A01 T02130143  RH  065%=      5-min Rain = 0
KFR1 140536Z 08022G27KT 21/14 A3022 RMK A01 T02130143  RH  065%=      5-min Rain = 0
KFR1 140537Z 07021G28KT 21/14 A3022 RMK A01 T02120143  RH  065%=      5-min Rain = 0
KFR1 140538Z 07024G30KT 21/14 A3022 RMK A01 T02120142  RH  065%=      5-min Rain = 0
KFR1 140539Z 08025G31KT 21/14 A3022 RMK A01 T02110142  RH  065%=      5-min Rain = 0
KFR1 140540Z 07020G25KT 21/14 A3022 RMK A01 T02110142  RH  065%=      5-min Rain = 0
KFR1 140541Z 07018G24KT 21/14 A3022 RMK A01 T02110142  RH  065%=      5-min Rain = 0
KFR1 140542Z 07018KT 21/14 A3023 RMK A01 T02100142  RH  065%=      5-min Rain = 0
KFR1 140543Z 07015G21KT 21/14 A3023 RMK A01 T02100142  RH  065%=      5-min Rain = 0
KFR1 140544Z 07012KT 21/14 A3023 RMK A01 T02100142  RH  065%=      5-min Rain = 0
KFR1 140545Z 06013KT 21/14 A3023 RMK A01 T02090142  RH  065%=      5-min Rain = 0
KFR1 140546Z 07015KT 21/14 A3023 RMK A01 T02090142  RH  066%=      5-min Rain = 0
KFR1 140547Z 08018G24KT 21/14 A3023 RMK A01 T02080142  RH  066%=      5-min Rain = 0
KFR1 140548Z 08017KT 21/14 A3023 RMK A01 T02080142  RH  066%=      5-min Rain = 0
KFR1 140549Z 07018KT 21/14 A3023 RMK A01 T02080141  RH  066%=      5-min Rain = 0
KFR1 140550Z 07015KT 21/14 A3023 RMK A01 T02080141  RH  066%=      5-min Rain = 0
KFR1 140551Z 07016G24KT 21/14 A3023 RMK A01 T02070141  RH  066%=      5-min Rain = 0
KFR1 140552Z 07021G27KT 21/14 A3022 RMK A01 T02070140  RH  066%=      5-min Rain = 0
KFR1 140553Z 07020G25KT 21/14 A3022 RMK A01 T02070140  RH  065%=      5-min Rain = 0
KFR1 140554Z 07021KT 21/14 A3022 RMK A01 T02070140  RH  065%=      5-min Rain = 0
KFR1 140555Z 08018KT 21/14 A3022 RMK A01 T02060140  RH  066%=      5-min Rain = 0
KFR1 140556Z 07019KT 21/14 A3022 RMK A01 T02050140  RH  066%=      5-min Rain = 0
KFR1 140557Z 08016KT 21/14 A3023 RMK A01 T02050139  RH  066%=      5-min Rain = 0
KFR1 140558Z 08013KT 21/14 A3023 RMK A01 T02050140  RH  066%=      5-min Rain = 0
KFR1 140559Z 07017KT 20/14 A3022 RMK A01 T02040139  RH  066%=      5-min Rain = 0
KFR1 140600Z 07018KT 20/14 A3022 RMK A01 T02040139  RH  066%=      5-min Rain = 0
KFR1 140601Z 07017G22KT 20/14 A3022 RMK A01 T02040139  RH  066%=      5-min Rain = 0
KFR1 140602Z 07016G22KT 20/14 A3022 RMK A01 T02040139  RH  066%=      5-min Rain = 0
KFR1 140603Z 08020G25KT 20/14 A3022 RMK A01 T02030139  RH  066%=      5-min Rain = 0
KFR1 140604Z 08019G24KT 20/14 A3023 RMK A01 T02030138  RH  066%=      5-min Rain = 0
KFR1 140605Z 08020KT 20/14 A3022 RMK A01 T02030138  RH  066%=      5-min Rain = 0
KFR1 140606Z 07019KT 20/14 A3022 RMK A01 T02030138  RH  066%=      5-min Rain = 0
KFR1 140607Z 08017G23KT 20/14 A3022 RMK A01 T02030138  RH  066%=      5-min Rain = 0
KFR1 140608Z 07020G25KT 20/14 A3022 RMK A01 T02020137  RH  066%=      5-min Rain = 0
KFR1 140609Z 07016KT 20/14 A3023 RMK A01 T02020136  RH  066%=      5-min Rain = 0
KFR1 140610Z 06021KT 20/14 A3022 RMK A01 T02020135  RH  065%=      5-min Rain = 0
KFR1 140611Z 07019G25KT 20/14 A3023 RMK A01 T02020135  RH  066%=      5-min Rain = 0
KFR1 140612Z 07020KT 20/14 A3022 RMK A01 T02020135  RH  065%=      5-min Rain = 0
KFR1 140613Z 07023G28KT 20/13 A3022 RMK A01 T02020134  RH  065%=      5-min Rain = 0
KFR1 140614Z 07023KT 20/13 A3022 RMK A01 T02010133  RH  065%=      5-min Rain = 0
KFR1 140615Z 07020KT 20/13 A3023 RMK A01 T02010133  RH  065%=      5-min Rain = 0
KFR1 140616Z 07016KT 20/13 A3023 RMK A01 T02010133  RH  065%=      5-min Rain = 0
KFR1 140617Z 07014G20KT 20/13 A3023 RMK A01 T02010133  RH  065%=      5-min Rain = 0
KFR1 140618Z 07019G25KT 20/13 A3023 RMK A01 T02000133  RH  065%=      5-min Rain = 0
KFR1 140619Z 06019KT 20/13 A3023 RMK A01 T02000133  RH  065%=      5-min Rain = 0
KFR1 140620Z 06019G24KT 20/13 A3023 RMK A01 T02000133  RH  065%=      5-min Rain = 0
KFR1 140621Z 07017KT 20/13 A3023 RMK A01 T02000132  RH  065%=      5-min Rain = 0
KFR1 140622Z 06016G22KT 20/13 A3023 RMK A01 T01990132  RH  065%=      5-min Rain = 0
KFR1 140623Z 07022KT 20/13 A3023 RMK A01 T01990131  RH  065%=      5-min Rain = 0
KFR1 140624Z 07017G23KT 20/13 A3023 RMK A01 T01990130  RH  064%=      5-min Rain = 0
KFR1 140625Z 07018KT 20/13 A3023 RMK A01 T01990131  RH  065%=      5-min Rain = 0
KFR1 140626Z 08017G22KT 20/13 A3023 RMK A01 T01990131  RH  065%=      5-min Rain = 0
KFR1 140627Z 07016G21KT 20/13 A3023 RMK A01 T01980131  RH  065%=      5-min Rain = 0
KFR1 140628Z 06018KT 20/13 A3023 RMK A01 T01980131  RH  065%=      5-min Rain = 0
KFR1 140629Z 06016KT 20/13 A3023 RMK A01 T01980130  RH  065%=      5-min Rain = 0
KFR1 140630Z 06016KT 20/13 A3023 RMK A01 T01980131  RH  065%=      5-min Rain = 0
KFR1 140631Z 07017KT 20/13 A3023 RMK A01 T01970130  RH  065%=      5-min Rain = 0
KFR1 140632Z 07016KT 20/13 A3023 RMK A01 T01970130  RH  065%=      5-min Rain = 0
KFR1 140633Z 07017G22KT 20/13 A3023 RMK A01 T01970130  RH  065%=      5-min Rain = 0
KFR1 140634Z 07012KT 20/13 A3023 RMK A01 T01970130  RH  065%=      5-min Rain = 0
KFR1 140635Z 08016KT 20/13 A3023 RMK A01 T01960130  RH  066%=      5-min Rain = 0
KFR1 140636Z 07013KT 20/13 A3023 RMK A01 T01960130  RH  065%=      5-min Rain = 0
KFR1 140637Z 08013G18KT 20/13 A3023 RMK A01 T01960130  RH  065%=      5-min Rain = 0
KFR1 140638Z 07013KT 20/13 A3023 RMK A01 T01960130  RH  066%=      5-min Rain = 0
KFR1 140639Z 07013KT 20/13 A3023 RMK A01 T01960129  RH  065%=      5-min Rain = 0
KFR1 140640Z 07013G19KT 20/13 A3023 RMK A01 T01960129  RH  065%=      5-min Rain = 0
KFR1 140641Z 07014KT 20/13 A3023 RMK A01 T01960129  RH  065%=      5-min Rain = 0
KFR1 140642Z 07013KT 20/13 A3023 RMK A01 T01960129  RH  065%=      5-min Rain = 0
KFR1 140643Z 07014KT 20/13 A3023 RMK A01 T01960129  RH  065%=      5-min Rain = 0
KFR1 140644Z 08014KT 20/13 A3023 RMK A01 T01960129  RH  065%=      5-min Rain = 0
KFR1 140645Z 07013KT 20/13 A3023 RMK A01 T01950128  RH  065%=      5-min Rain = 0
KFR1 140646Z 08012KT 20/13 A3023 RMK A01 T01950128  RH  065%=      5-min Rain = 0
KFR1 140647Z 08016KT 20/13 A3023 RMK A01 T01950128  RH  065%=      5-min Rain = 0
KFR1 140648Z 07016KT 20/13 A3023 RMK A01 T01950127  RH  065%=      5-min Rain = 0
KFR1 140649Z 07014KT 20/13 A3023 RMK A01 T01950127  RH  065%=      5-min Rain = 0
KFR1 140650Z 07012KT 20/13 A3023 RMK A01 T01950128  RH  065%=      5-min Rain = 0
KFR1 140651Z 08011KT 20/13 A3023 RMK A01 T01950128  RH  065%=      5-min Rain = 0
KFR1 140652Z 08013KT 19/13 A3023 RMK A01 T01940128  RH  065%=      5-min Rain = 0
KFR1 140653Z 07013KT 19/13 A3023 RMK A01 T01940128  RH  066%=      5-min Rain = 0
KFR1 140654Z 07014KT 19/13 A3023 RMK A01 T01940128  RH  066%=      5-min Rain = 0
KFR1 140655Z 08011KT 19/13 A3023 RMK A01 T01940128  RH  066%=      5-min Rain = 0
KFR1 140656Z 08012KT 19/13 A3023 RMK A01 T01930128  RH  066%=      5-min Rain = 0
KFR1 140657Z 08012G17KT 19/13 A3022 RMK A01 T01930128  RH  066%=      5-min Rain = 0
KFR1 140658Z 08013KT 19/13 A3022 RMK A01 T01930128  RH  066%=      5-min Rain = 0
KFR1 140659Z 08010KT 19/13 A3022 RMK A01 T01930128  RH  066%=      5-min Rain = 0
KFR1 140700Z 07012KT 19/13 A3022 RMK A01 T01930128  RH  066%=      5-min Rain = 0
KFR1 140701Z 08009KT 19/13 A3022 RMK A01 T01920128  RH  066%=      5-min Rain = 0
KFR1 140702Z 08010KT 19/13 A3023 RMK A01 T01930128  RH  066%=      5-min Rain = 0
KFR1 140703Z 08008KT 19/13 A3023 RMK A01 T01920128  RH  066%=      5-min Rain = 0
KFR1 140704Z 08009KT 19/13 A3023 RMK A01 T01920128  RH  067%=      5-min Rain = 0
KFR1 140705Z 07011KT 19/13 A3023 RMK A01 T01910128  RH  067%=      5-min Rain = 0
KFR1 140706Z 07009KT 19/13 A3023 RMK A01 T01910128  RH  067%=      5-min Rain = 0
KFR1 140707Z 07010KT 19/13 A3023 RMK A01 T01910128  RH  067%=      5-min Rain = 0
KFR1 140708Z 07008KT 19/13 A3023 RMK A01 T01910127  RH  067%=      5-min Rain = 0
KFR1 140709Z 07009KT 19/13 A3023 RMK A01 T01910127  RH  066%=      5-min Rain = 0
KFR1 140710Z 07010KT 19/13 A3023 RMK A01 T01920127  RH  066%=      5-min Rain = 0
KFR1 140711Z 07009KT 19/13 A3023 RMK A01 T01920128  RH  066%=      5-min Rain = 0
KFR1 140712Z 08009KT 19/13 A3023 RMK A01 T01920128  RH  066%=      5-min Rain = 0
KFR1 140713Z 07009KT 19/13 A3023 RMK A01 T01930128  RH  066%=      5-min Rain = 0
KFR1 140714Z 07008KT 19/13 A3023 RMK A01 T01930128  RH  066%=      5-min Rain = 0
KFR1 140715Z 07008KT 19/13 A3023 RMK A01 T01930128  RH  066%=      5-min Rain = 0
KFR1 140716Z 08010KT 19/13 A3023 RMK A01 T01920127  RH  066%=      5-min Rain = 0
KFR1 140717Z 07009KT 19/13 A3023 RMK A01 T01930128  RH  066%=      5-min Rain = 0
KFR1 140718Z 07009KT 19/13 A3023 RMK A01 T01930128  RH  066%=      5-min Rain = 0
KFR1 140719Z 07008KT 19/13 A3023 RMK A01 T01930128  RH  066%=      5-min Rain = 0
KFR1 140720Z 08008KT 19/13 A3023 RMK A01 T01930128  RH  066%=      5-min Rain = 0
KFR1 140721Z 07008KT 19/13 A3023 RMK A01 T01920128  RH  066%=      5-min Rain = 0
KFR1 140722Z 07008KT 19/13 A3023 RMK A01 T01930128  RH  066%=      5-min Rain = 0
KFR1 140723Z 08008KT 19/13 A3023 RMK A01 T01920127  RH  066%=      5-min Rain = 0
KFR1 140724Z 08009KT 19/13 A3023 RMK A01 T01930127  RH  066%=      5-min Rain = 0
KFR1 140725Z 07008KT 19/13 A3023 RMK A01 T01930127  RH  066%=      5-min Rain = 0
KFR1 140726Z 08008KT 19/13 A3023 RMK A01 T01930127  RH  066%=      5-min Rain = 0
KFR1 140727Z 08009KT 19/13 A3022 RMK A01 T01930127  RH  066%=      5-min Rain = 0
KFR1 140728Z 08010KT 19/13 A3022 RMK A01 T01920126  RH  066%=      5-min Rain = 0
KFR1 140729Z 07010KT 19/13 A3022 RMK A01 T01920126  RH  066%=      5-min Rain = 0
KFR1 140730Z 08009KT 19/13 A3022 RMK A01 T01930127  RH  066%=      5-min Rain = 0
KFR1 140731Z 08008KT 19/13 A3022 RMK A01 T01920127  RH  066%=      5-min Rain = 0
KFR1 140732Z 08008KT 19/13 A3022 RMK A01 T01920127  RH  066%=      5-min Rain = 0
KFR1 140733Z 07009KT 19/13 A3022 RMK A01 T01910127  RH  066%=      5-min Rain = 0
KFR1 140734Z 08009KT 19/13 A3022 RMK A01 T01920127  RH  066%=      5-min Rain = 0
KFR1 140735Z 08009KT 19/13 A3021 RMK A01 T01920127  RH  066%=      5-min Rain = 0
KFR1 140736Z 08010KT 19/13 A3021 RMK A01 T01920126  RH  066%=      5-min Rain = 0
KFR1 140737Z 08011KT 19/13 A3021 RMK A01 T01930126  RH  065%=      5-min Rain = 0
KFR1 140738Z 09011KT 19/13 A3021 RMK A01 T01930126  RH  065%=      5-min Rain = 0
KFR1 140739Z 09009KT 19/13 A3021 RMK A01 T01930126  RH  065%=      5-min Rain = 0
KFR1 140740Z 08008KT 19/13 A3021 RMK A01 T01940126  RH  065%=      5-min Rain = 0
KFR1 140741Z 08011KT 19/13 A3021 RMK A01 T01940126  RH  065%=      5-min Rain = 0
KFR1 140742Z 08011KT 19/13 A3021 RMK A01 T01940125  RH  064%=      5-min Rain = 0
KFR1 140743Z 08009KT 20/13 A3021 RMK A01 T01950125  RH  064%=      5-min Rain = 0
KFR1 140744Z 08010KT 20/13 A3021 RMK A01 T01950125  RH  064%=      5-min Rain = 0
KFR1 140745Z 08009KT 20/13 A3021 RMK A01 T01960125  RH  064%=      5-min Rain = 0
KFR1 140746Z 07009KT 20/13 A3021 RMK A01 T01960125  RH  064%=      5-min Rain = 0
KFR1 140747Z 08009G14KT 20/13 A3021 RMK A01 T01960125  RH  064%=      5-min Rain = 0
KFR1 140748Z 07011KT 20/13 A3021 RMK A01 T01960125  RH  064%=      5-min Rain = 0
KFR1 140749Z 07010KT 20/13 A3021 RMK A01 T01960125  RH  064%=      5-min Rain = 0
KFR1 140750Z 07009KT 20/13 A3021 RMK A01 T01960125  RH  064%=      5-min Rain = 0
KFR1 140751Z 07010KT 20/13 A3021 RMK A01 T01950125  RH  064%=      5-min Rain = 0
KFR1 140752Z 08007KT 20/13 A3021 RMK A01 T01950125  RH  064%=      5-min Rain = 0
KFR1 140753Z 08007KT 20/13 A3021 RMK A01 T01950125  RH  064%=      5-min Rain = 0
KFR1 140754Z 07007KT 19/13 A3021 RMK A01 T01940125  RH  064%=      5-min Rain = 0
KFR1 140755Z 08009KT 19/13 A3021 RMK A01 T01940125  RH  064%=      5-min Rain = 0
KFR1 140756Z 08006KT 19/12 A3021 RMK A01 T01940124  RH  064%=      5-min Rain = 0
KFR1 140757Z 08010KT 19/13 A3021 RMK A01 T01940125  RH  064%=      5-min Rain = 0
KFR1 140758Z 07008KT 19/12 A3021 RMK A01 T01930124  RH  064%=      5-min Rain = 0
KFR1 140759Z 07009KT 19/12 A3021 RMK A01 T01940124  RH  064%=      5-min Rain = 0
KFR1 140800Z 08008KT 19/12 A3021 RMK A01 T01940124  RH  064%=      5-min Rain = 0
KFR1 140801Z 08008KT 19/12 A3021 RMK A01 T01940124  RH  064%=      5-min Rain = 0
KFR1 140802Z 08009KT 19/13 A3021 RMK A01 T01940125  RH  064%=      5-min Rain = 0
KFR1 140803Z 07006KT 19/12 A3021 RMK A01 T01940124  RH  064%=      5-min Rain = 0
KFR1 140804Z 07006KT 19/13 A3021 RMK A01 T01940125  RH  064%=      5-min Rain = 0
KFR1 140805Z 06007KT 19/13 A3021 RMK A01 T01940125  RH  064%=      5-min Rain = 0
KFR1 140806Z 06005KT 19/13 A3022 RMK A01 T01940125  RH  064%=      5-min Rain = 0
KFR1 140807Z 07007KT 19/12 A3022 RMK A01 T01930124  RH  064%=      5-min Rain = 0
KFR1 140808Z 06007KT 19/12 A3022 RMK A01 T01930124  RH  064%=      5-min Rain = 0
KFR1 140809Z 06007KT 19/12 A3022 RMK A01 T01940124  RH  064%=      5-min Rain = 0
KFR1 140810Z 06007KT 19/12 A3022 RMK A01 T01930124  RH  064%=      5-min Rain = 0
KFR1 140811Z 07007KT 19/12 A3022 RMK A01 T01930124  RH  064%=      5-min Rain = 0
KFR1 140812Z 06007KT 19/12 A3022 RMK A01 T01930124  RH  064%=      5-min Rain = 0
KFR1 140813Z 06006KT 19/12 A3022 RMK A01 T01930124  RH  064%=      5-min Rain = 0
KFR1 140814Z 06007KT 19/12 A3022 RMK A01 T01930124  RH  064%=      5-min Rain = 0
KFR1 140815Z 05007KT 19/12 A3022 RMK A01 T01930124  RH  064%=      5-min Rain = 0
KFR1 140816Z 07006KT 19/12 A3022 RMK A01 T01930124  RH  064%=      5-min Rain = 0
KFR1 140817Z 07006KT 19/12 A3022 RMK A01 T01930124  RH  064%=      5-min Rain = 0
KFR1 140818Z 07007KT 19/12 A3022 RMK A01 T01920124  RH  065%=      5-min Rain = 0
KFR1 140819Z 07005KT 19/12 A3022 RMK A01 T01920124  RH  065%=      5-min Rain = 0
KFR1 140820Z 06006KT 19/12 A3022 RMK A01 T01920124  RH  065%=      5-min Rain = 0
KFR1 140821Z 07005KT 19/12 A3022 RMK A01 T01910124  RH  065%=      5-min Rain = 0
KFR1 140822Z 06005KT 19/12 A3022 RMK A01 T01910124  RH  065%=      5-min Rain = 0
KFR1 140823Z 06006KT 19/12 A3022 RMK A01 T01910124  RH  065%=      5-min Rain = 0
KFR1 140824Z 05006KT 19/13 A3023 RMK A01 T01910125  RH  065%=      5-min Rain = 0
KFR1 140825Z 04005KT 19/13 A3023 RMK A01 T01900125  RH  066%=      5-min Rain = 0
KFR1 140826Z 04005KT 19/13 A3023 RMK A01 T01900125  RH  066%=      5-min Rain = 0
KFR1 140827Z 03006KT 19/13 A3023 RMK A01 T01890125  RH  066%=      5-min Rain = 0
KFR1 140828Z 02005KT 19/13 A3023 RMK A01 T01890126  RH  067%=      5-min Rain = 0
KFR1 140829Z 02005KT 19/13 A3023 RMK A01 T01890127  RH  067%=      5-min Rain = 0
KFR1 140830Z 02005KT 19/13 A3024 RMK A01 T01890126  RH  067%=      5-min Rain = 0
KFR1 140831Z 02007KT 19/13 A3024 RMK A01 T01890126  RH  067%=      5-min Rain = 0
KFR1 140832Z 02006KT 19/13 A3024 RMK A01 T01890127  RH  067%=      5-min Rain = 0
KFR1 140833Z 03006KT 19/13 A3024 RMK A01 T01900127  RH  067%=      5-min Rain = 0
KFR1 140834Z 02006KT 19/13 A3024 RMK A01 T01900128  RH  067%=      5-min Rain = 0
KFR1 140835Z 02005KT 19/13 A3024 RMK A01 T01910130  RH  068%=      5-min Rain = 0
KFR1 140836Z 03006KT 19/13 A3024 RMK A01 T01910131  RH  068%=      5-min Rain = 0
KFR1 140837Z 02008KT 19/13 A3024 RMK A01 T01920131  RH  068%=      5-min Rain = 0
KFR1 140838Z 03007KT 19/13 A3024 RMK A01 T01920130  RH  067%=      5-min Rain = 0
KFR1 140839Z 03008KT 19/13 A3024 RMK A01 T01920130  RH  067%=      5-min Rain = 0
KFR1 140840Z 03009KT 19/13 A3024 RMK A01 T01930128  RH  066%=      5-min Rain = 0
KFR1 140841Z 03007KT 19/13 A3024 RMK A01 T01930129  RH  066%=      5-min Rain = 0
KFR1 140842Z 04006KT 19/13 A3024 RMK A01 T01930129  RH  067%=      5-min Rain = 0
KFR1 140843Z 04007KT 19/13 A3024 RMK A01 T01930129  RH  066%=      5-min Rain = 0
KFR1 140844Z 02006KT 19/13 A3024 RMK A01 T01930130  RH  067%=      5-min Rain = 0
KFR1 140845Z 03005KT 19/13 A3024 RMK A01 T01930129  RH  067%=      5-min Rain = 0
KFR1 140846Z 03006KT 19/13 A3024 RMK A01 T01930130  RH  067%=      5-min Rain = 0
KFR1 140847Z 03006KT 19/13 A3024 RMK A01 T01930131  RH  067%=      5-min Rain = 0
KFR1 140848Z 03006KT 19/13 A3024 RMK A01 T01930131  RH  067%=      5-min Rain = 0
KFR1 140849Z 04005KT 19/13 A3024 RMK A01 T01940130  RH  067%=      5-min Rain = 0
KFR1 140850Z 04007KT 19/13 A3024 RMK A01 T01940130  RH  067%=      5-min Rain = 0
KFR1 140851Z 04006KT 19/13 A3024 RMK A01 T01930130  RH  067%=      5-min Rain = 0
KFR1 140852Z 04006KT 19/13 A3024 RMK A01 T01930130  RH  067%=      5-min Rain = 0
KFR1 140853Z 04005KT 19/13 A3024 RMK A01 T01930131  RH  067%=      5-min Rain = 0
KFR1 140854Z 05006KT 19/13 A3024 RMK A01 T01930130  RH  067%=      5-min Rain = 0
KFR1 140855Z 04006KT 19/13 A3024 RMK A01 T01930130  RH  067%=      5-min Rain = 0
KFR1 140856Z 03006KT 19/13 A3024 RMK A01 T01930129  RH  066%=      5-min Rain = 0
KFR1 140857Z 02004KT 19/13 A3024 RMK A01 T01930131  RH  067%=      5-min Rain = 0
KFR1 140858Z 01006KT 19/13 A3025 RMK A01 T01930132  RH  068%=      5-min Rain = 0
KFR1 140859Z 02005KT 19/13 A3025 RMK A01 T01930131  RH  067%=      5-min Rain = 0
KFR1 140900Z 36006KT 19/13 A3025 RMK A01 T01930132  RH  068%=      5-min Rain = 0
KFR1 140901Z 35005KT 19/13 A3026 RMK A01 T01940133  RH  068%=      5-min Rain = 0
KFR1 140902Z 01007KT 19/14 A3026 RMK A01 T01940135  RH  069%=      5-min Rain = 0
KFR1 140903Z 35007KT 19/14 A3026 RMK A01 T01940136  RH  069%=      5-min Rain = 0
KFR1 140904Z 00007KT 19/14 A3026 RMK A01 T01940138  RH  070%=      5-min Rain = 0
KFR1 140905Z 35006KT 19/14 A3026 RMK A01 T01940138  RH  070%=      5-min Rain = 0
KFR1 140906Z 34006KT 19/14 A3026 RMK A01 T01930136  RH  069%=      5-min Rain = 0
KFR1 140907Z 35012KT 19/13 A3026 RMK A01 T01920134  RH  069%=      5-min Rain = 0
KFR1 140908Z 35011KT 19/13 A3026 RMK A01 T01920134  RH  069%=      5-min Rain = 0
KFR1 140909Z 36007KT 19/13 A3026 RMK A01 T01920134  RH  069%=      5-min Rain = 0
KFR1 140910Z 35002KT 19/14 A3025 RMK A01 T01920135  RH  070%=      5-min Rain = 0
KFR1 140911Z 02005KT 19/14 A3025 RMK A01 T01920135  RH  070%=      5-min Rain = 0
KFR1 140912Z 01006KT 19/13 A3025 RMK A01 T01920134  RH  069%=      5-min Rain = 0
KFR1 140913Z 01009KT 19/14 A3025 RMK A01 T01910135  RH  070%=      5-min Rain = 0
KFR1 140914Z 00009KT 19/13 A3025 RMK A01 T01910134  RH  070%=      5-min Rain = 0
KFR1 140915Z 01007KT 19/14 A3025 RMK A01 T01910135  RH  070%=      5-min Rain = 0
KFR1 140916Z 01004KT 19/14 A3025 RMK A01 T01910135  RH  070%=      5-min Rain = 0
KFR1 140917Z 01005KT 19/14 A3025 RMK A01 T01910135  RH  070%=      5-min Rain = 0
KFR1 140918Z 03006KT 19/14 A3025 RMK A01 T01910135  RH  070%=      5-min Rain = 0
KFR1 140919Z 01008KT 19/14 A3025 RMK A01 T01910136  RH  070%=      5-min Rain = 0
KFR1 140920Z 02008KT 19/14 A3025 RMK A01 T01910138  RH  071%=      5-min Rain = 0
KFR1 140921Z 02005KT 19/14 A3025 RMK A01 T01910140  RH  072%=      5-min Rain = 0
KFR1 140922Z 03004KT 19/14 A3025 RMK A01 T01920140  RH  072%=      5-min Rain = 0
KFR1 140923Z 04004KT 19/14 A3025 RMK A01 T01920140  RH  071%=      5-min Rain = 0
KFR1 140924Z 03005KT 19/14 A3025 RMK A01 T01920139  RH  071%=      5-min Rain = 0
KFR1 140925Z 03006KT 19/14 A3025 RMK A01 T01920137  RH  070%=      5-min Rain = 0
KFR1 140926Z 02007KT 19/14 A3025 RMK A01 T01920136  RH  070%=      5-min Rain = 0
KFR1 140927Z 03007KT 19/14 A3025 RMK A01 T01920137  RH  070%=      5-min Rain = 0
KFR1 140928Z 02005KT 19/14 A3025 RMK A01 T01920137  RH  070%=      5-min Rain = 0
KFR1 140929Z 03006KT 19/14 A3025 RMK A01 T01920137  RH  070%=      5-min Rain = 0
KFR1 140930Z 03004KT 19/14 A3025 RMK A01 T01920138  RH  071%=      5-min Rain = 0
KFR1 140931Z 02006KT 19/14 A3025 RMK A01 T01920138  RH  071%=      5-min Rain = 0
KFR1 140932Z 02006KT 19/14 A3025 RMK A01 T01920138  RH  071%=      5-min Rain = 0
KFR1 140933Z 02004KT 19/14 A3025 RMK A01 T01920139  RH  071%=      5-min Rain = 0
KFR1 140934Z 02008KT 19/14 A3026 RMK A01 T01920138  RH  071%=      5-min Rain = 0
KFR1 140935Z 02007KT 19/14 A3026 RMK A01 T01930138  RH  071%=      5-min Rain = 0
KFR1 140936Z 02006KT 19/14 A3026 RMK A01 T01930139  RH  071%=      5-min Rain = 0
KFR1 140937Z 01005KT 19/14 A3026 RMK A01 T01930140  RH  072%=      5-min Rain = 0
KFR1 140938Z 00007KT 19/14 A3026 RMK A01 T01930142  RH  072%=      5-min Rain = 0
KFR1 140939Z 01012KT 19/14 A3027 RMK A01 T01930143  RH  073%=      5-min Rain = 0
KFR1 140940Z 02014G19KT 19/14 A3027 RMK A01 T01940144  RH  073%=      5-min Rain = 0
KFR1 140941Z 00012G17KT 19/14 A3027 RMK A01 T01940142  RH  072%=      5-min Rain = 0
KFR1 140942Z 01007G13KT 19/14 A3026 RMK A01 T01940142  RH  072%=      5-min Rain = 0
KFR1 140943Z 02006KT 19/14 A3026 RMK A01 T01940142  RH  072%=      5-min Rain = 0
KFR1 140944Z 01011KT 19/14 A3027 RMK A01 T01930138  RH  070%=      5-min Rain = 0
KFR1 140945Z 01013G18KT 19/14 A3028 RMK A01 T01930139  RH  071%=      5-min Rain = 0
KFR1 140946Z 36012G17KT 19/14 A3028 RMK A01 T01930143  RH  073%=      5-min Rain = 0
KFR1 140947Z 35008G13KT 19/14 A3027 RMK A01 T01930141  RH  072%=      5-min Rain = 0
KFR1 140948Z 36008KT 19/14 A3027 RMK A01 T01930140  RH  071%=      5-min Rain = 0
KFR1 140949Z 01011G19KT 19/14 A3028 RMK A01 T01920139  RH  071%=      5-min Rain = 0
KFR1 140950Z 01015KT 19/14 A3028 RMK A01 T01920140  RH  072%=      5-min Rain = 0
KFR1 140951Z 01009KT 19/14 A3027 RMK A01 T01920138  RH  071%=      5-min Rain = 0
KFR1 140952Z 02009KT 19/14 A3027 RMK A01 T01920136  RH  070%=      5-min Rain = 0
KFR1 140953Z 01009KT 19/13 A3028 RMK A01 T01920134  RH  069%=      5-min Rain = 0
KFR1 140954Z 01013KT 19/14 A3029 RMK A01 T01910135  RH  070%=      5-min Rain = 0
KFR1 140955Z 36013KT 19/14 A3029 RMK A01 T01920139  RH  071%=      5-min Rain = 0
KFR1 140956Z 35009KT 19/14 A3028 RMK A01 T01920140  RH  072%=      5-min Rain = 0
KFR1 140957Z 01008KT 19/14 A3028 RMK A01 T01920138  RH  071%=      5-min Rain = 0
KFR1 140958Z 02010KT 19/14 A3028 RMK A01 T01920139  RH  071%=      5-min Rain = 0
KFR1 140959Z 02008KT 19/14 A3028 RMK A01 T01920139  RH  071%=      5-min Rain = 0
KFR1 141000Z 00008G13KT 19/14 A3028 RMK A01 T01920138  RH  071%=      5-min Rain = 0
KFR1 141001Z 36013KT 19/14 A3028 RMK A01 T01920138  RH  071%=      5-min Rain = 0
KFR1 141002Z 01009KT 19/14 A3028 RMK A01 T01920139  RH  072%=      5-min Rain = 0
KFR1 141003Z 02009G14KT 19/14 A3028 RMK A01 T01920141  RH  072%=      5-min Rain = 0
KFR1 141004Z 02007KT 19/14 A3028 RMK A01 T01930141  RH  072%=      5-min Rain = 0
KFR1 141005Z 04007KT 19/14 A3028 RMK A01 T01930141  RH  072%=      5-min Rain = 0
KFR1 141006Z 03009KT 19/14 A3027 RMK A01 T01930140  RH  072%=      5-min Rain = 0
KFR1 141007Z 04008KT 19/14 A3027 RMK A01 T01920139  RH  071%=      5-min Rain = 0
KFR1 141008Z 05006KT 19/14 A3027 RMK A01 T01930139  RH  071%=      5-min Rain = 0
KFR1 141009Z 05009KT 19/14 A3027 RMK A01 T01920138  RH  071%=      5-min Rain = 0
KFR1 141010Z 05008KT 19/14 A3026 RMK A01 T01920136  RH  070%=      5-min Rain = 0
KFR1 141011Z 04010KT 19/14 A3026 RMK A01 T01920136  RH  070%=      5-min Rain = 0
KFR1 141012Z 04009KT 19/14 A3026 RMK A01 T01920138  RH  071%=      5-min Rain = 0
KFR1 141013Z 04009KT 19/14 A3026 RMK A01 T01920139  RH  072%=      5-min Rain = 0
KFR1 141014Z 04011KT 19/14 A3025 RMK A01 T01910139  RH  072%=      5-min Rain = 0
KFR1 141015Z 05010KT 19/14 A3025 RMK A01 T01910139  RH  072%=      5-min Rain = 0
KFR1 141016Z 05009KT 19/14 A3025 RMK A01 T01900140  RH  073%=      5-min Rain = 0
KFR1 141017Z 05008KT 19/14 A3024 RMK A01 T01890138  RH  072%=      5-min Rain = 0
KFR1 141018Z 05008KT 19/14 A3024 RMK A01 T01880139  RH  073%=      5-min Rain = 0
KFR1 141019Z 05009KT 19/14 A3024 RMK A01 T01870139  RH  073%=      5-min Rain = 0
KFR1 141020Z 05008KT 19/14 A3024 RMK A01 T01870139  RH  073%=      5-min Rain = 0
KFR1 141021Z 05008KT 19/14 A3024 RMK A01 T01870139  RH  074%=      5-min Rain = 0
KFR1 141022Z 05009KT 19/14 A3024 RMK A01 T01870139  RH  074%=      5-min Rain = 0
KFR1 141023Z 05009KT 19/14 A3024 RMK A01 T01870138  RH  073%=      5-min Rain = 0
KFR1 141024Z 04008KT 19/14 A3024 RMK A01 T01870139  RH  074%=      5-min Rain = 0
KFR1 141025Z 04007KT 19/14 A3025 RMK A01 T01860140  RH  074%=      5-min Rain = 0
KFR1 141026Z 04007KT 19/14 A3025 RMK A01 T01860140  RH  074%=      5-min Rain = 0
KFR1 141027Z 01006KT 19/14 A3025 RMK A01 T01850141  RH  075%=      5-min Rain = 0
KFR1 141028Z 03007KT 19/14 A3025 RMK A01 T01850142  RH  076%=      5-min Rain = 0
KFR1 141029Z 04007KT 18/14 A3025 RMK A01 T01840140  RH  075%=      5-min Rain = 0
KFR1 141030Z 03007KT 19/14 A3025 RMK A01 T01850139  RH  075%=      5-min Rain = 0
KFR1 141031Z 04008KT 19/14 A3025 RMK A01 T01850139  RH  075%=      5-min Rain = 0
KFR1 141032Z 04008KT 19/14 A3025 RMK A01 T01860137  RH  073%=      5-min Rain = 0
KFR1 141033Z 04007KT 19/14 A3025 RMK A01 T01870139  RH  074%=      5-min Rain = 0
KFR1 141034Z 02004KT 19/14 A3026 RMK A01 T01870140  RH  074%=      5-min Rain = 0
KFR1 141035Z 00008G15KT 19/14 A3026 RMK A01 T01860142  RH  075%=      5-min Rain = 0
KFR1 141036Z 36010KT 19/14 A3026 RMK A01 T01860142  RH  075%=      5-min Rain = 0
KFR1 141037Z 35011KT 19/14 A3026 RMK A01 T01870142  RH  075%=      5-min Rain = 0
KFR1 141038Z 35009KT 19/14 A3026 RMK A01 T01870141  RH  074%=      5-min Rain = 0
KFR1 141039Z 01005KT 19/14 A3026 RMK A01 T01870141  RH  074%=      5-min Rain = 0
KFR1 141040Z 01005KT 19/14 A3026 RMK A01 T01860141  RH  075%=      5-min Rain = 0
KFR1 141041Z 36005KT 19/14 A3026 RMK A01 T01860142  RH  076%=      5-min Rain = 0
KFR1 141042Z 35006KT 19/14 A3026 RMK A01 T01850142  RH  076%=      5-min Rain = 0
KFR1 141043Z 00005KT 19/14 A3026 RMK A01 T01850143  RH  076%=      5-min Rain = 0
KFR1 141044Z 35005KT 19/14 A3026 RMK A01 T01850143  RH  076%=      5-min Rain = 0
KFR1 141045Z 34003KT 19/14 A3026 RMK A01 T01850142  RH  076%=      5-min Rain = 0
KFR1 141046Z 32003KT 19/14 A3026 RMK A01 T01860144  RH  076%=      5-min Rain = 0
KFR1 141047Z 30003KT 19/15 A3026 RMK A01 T01860145  RH  077%=      5-min Rain = 0
KFR1 141048Z 30003KT 19/15 A3026 RMK A01 T01860146  RH  078%=      5-min Rain = 0
KFR1 141049Z 31003KT 19/15 A3026 RMK A01 T01860147  RH  078%=      5-min Rain = 0
KFR1 141050Z 32004KT 19/15 A3026 RMK A01 T01860146  RH  077%=      5-min Rain = 0
KFR1 141051Z 34006KT 19/14 A3026 RMK A01 T01860141  RH  075%=      5-min Rain = 0
KFR1 141052Z 34003KT 19/14 A3026 RMK A01 T01870141  RH  075%=      5-min Rain = 0
KFR1 141053Z 32003KT 19/14 A3026 RMK A01 T01870141  RH  074%=      5-min Rain = 0
KFR1 141054Z 30002KT 19/14 A3025 RMK A01 T01870143  RH  075%=      5-min Rain = 0
KFR1 141055Z 34003KT 19/15 A3025 RMK A01 T01870145  RH  076%=      5-min Rain = 0
KFR1 141056Z 36002KT 19/14 A3025 RMK A01 T01870144  RH  076%=      5-min Rain = 0
KFR1 141057Z 36004KT 19/14 A3025 RMK A01 T01870142  RH  075%=      5-min Rain = 0
KFR1 141058Z 35005KT 19/14 A3025 RMK A01 T01880140  RH  074%=      5-min Rain = 0
KFR1 141059Z 36004KT 19/14 A3025 RMK A01 T01880141  RH  074%=      5-min Rain = 0
KFR1 141100Z 36004KT 19/14 A3024 RMK A01 T01880143  RH  075%=      5-min Rain = 0
KFR1 141101Z 00005KT 19/14 A3024 RMK A01 T01880143  RH  075%=      5-min Rain = 0
KFR1 141102Z 01006KT 19/14 A3024 RMK A01 T01870140  RH  074%=      5-min Rain = 0
KFR1 141103Z 00005KT 19/14 A3024 RMK A01 T01870140  RH  074%=      5-min Rain = 0
KFR1 141104Z 00006KT 19/14 A3024 RMK A01 T01880141  RH  074%=      5-min Rain = 0
KFR1 141105Z 36007KT 19/14 A3024 RMK A01 T01880142  RH  075%=      5-min Rain = 0
KFR1 141106Z 35008KT 19/14 A3024 RMK A01 T01880143  RH  075%=      5-min Rain = 0
KFR1 141107Z 35007KT 19/14 A3024 RMK A01 T01870142  RH  075%=      5-min Rain = 0
KFR1 141108Z 35007KT 19/14 A3024 RMK A01 T01870144  RH  076%=      5-min Rain = 0
KFR1 141109Z 35006KT 19/15 A3024 RMK A01 T01870145  RH  076%=      5-min Rain = 0
KFR1 141110Z 35007KT 19/15 A3024 RMK A01 T01870146  RH  077%=      5-min Rain = 0.01
KFR1 141111Z 35007KT 19/15 A3024 RMK A01 T01860145  RH  077%=      5-min Rain = 0
KFR1 141112Z 00007KT 19/15 A3024 RMK A01 T01860146  RH  077%=      5-min Rain = 0
KFR1 141113Z 36007KT 19/15 A3025 RMK A01 T01860147  RH  078%=      5-min Rain = 0
KFR1 141114Z 00006KT 19/15 A3025 RMK A01 T01860146  RH  078%=      5-min Rain = 0
KFR1 141115Z 01007KT 19/15 A3025 RMK A01 T01860148  RH  079%=      5-min Rain = 0
KFR1 141116Z 01007KT 19/15 A3025 RMK A01 T01850149  RH  079%=      5-min Rain = 0
KFR1 141117Z 01005KT 19/15 A3025 RMK A01 T01850150  RH  080%=      5-min Rain = 0
KFR1 141118Z 02005KT 18/15 A3025 RMK A01 T01840149  RH  080%=      5-min Rain = 0.01
KFR1 141119Z 03005KT 18/15 A3025 RMK A01 T01840151  RH  081%=      5-min Rain = 0
KFR1 141120Z 02005KT 18/15 A3025 RMK A01 T01840152  RH  082%=      5-min Rain = 0
KFR1 141121Z 01005KT 18/15 A3025 RMK A01 T01830154  RH  083%=      5-min Rain = 0
KFR1 141122Z 01007KT 18/15 A3025 RMK A01 T01830153  RH  083%=      5-min Rain = 0
KFR1 141123Z 01006KT 18/15 A3025 RMK A01 T01820151  RH  082%=      5-min Rain = 0
KFR1 141124Z 00005KT 18/15 A3025 RMK A01 T01830153  RH  083%=      5-min Rain = 0
KFR1 141125Z 01006KT 18/15 A3025 RMK A01 T01830153  RH  082%=      5-min Rain = 0
KFR1 141126Z 00005KT 18/15 A3026 RMK A01 T01840153  RH  082%=      5-min Rain = 0.01
KFR1 141127Z 01004KT 19/15 A3026 RMK A01 T01850150  RH  080%=      5-min Rain = 0
KFR1 141128Z 36004KT 19/15 A3026 RMK A01 T01860151  RH  080%=      5-min Rain = 0
KFR1 141129Z 01007KT 19/15 A3026 RMK A01 T01880145  RH  076%=      5-min Rain = 0
KFR1 141130Z 02005KT 19/14 A3026 RMK A01 T01930144  RH  073%=      5-min Rain = 0
KFR1 141131Z 02003KT 20/15 A3026 RMK A01 T01950148  RH  074%=      5-min Rain = 0
KFR1 141132Z 36004KT 20/15 A3026 RMK A01 T01950150  RH  075%=      5-min Rain = 0
KFR1 141133Z 32007KT 19/15 A3026 RMK A01 T01940149  RH  075%=      5-min Rain = 0
KFR1 141134Z 33004KT 19/15 A3027 RMK A01 T01940151  RH  076%=      5-min Rain = 0
KFR1 141135Z 32003KT 19/15 A3026 RMK A01 T01930153  RH  077%=      5-min Rain = 0
KFR1 141136Z 34008KT 19/15 A3027 RMK A01 T01930147  RH  075%=      5-min Rain = 0
KFR1 141137Z 33009KT 20/15 A3027 RMK A01 T01960145  RH  072%=      5-min Rain = 0
KFR1 141138Z 33007KT 20/15 A3027 RMK A01 T01960145  RH  073%=      5-min Rain = 0
KFR1 141139Z 33006KT 20/15 A3027 RMK A01 T01950148  RH  074%=      5-min Rain = 0
KFR1 141140Z 33004KT 19/15 A3027 RMK A01 T01930149  RH  075%=      5-min Rain = 0
KFR1 141141Z 33007KT 19/15 A3027 RMK A01 T01920149  RH  076%=      5-min Rain = 0
KFR1 141142Z 34007KT 19/15 A3027 RMK A01 T01930151  RH  077%=      5-min Rain = 0
KFR1 141143Z 35007KT 19/15 A3027 RMK A01 T01920148  RH  076%=      5-min Rain = 0
KFR1 141144Z 34007KT 19/15 A3027 RMK A01 T01930149  RH  076%=      5-min Rain = 0
KFR1 141145Z 35006KT 19/15 A3027 RMK A01 T01930151  RH  077%=      5-min Rain = 0
KFR1 141146Z 35005KT 19/15 A3027 RMK A01 T01930153  RH  078%=      5-min Rain = 0
KFR1 141147Z 34006KT 19/15 A3027 RMK A01 T01920152  RH  077%=      5-min Rain = 0
KFR1 141148Z 34007KT 19/15 A3027 RMK A01 T01920152  RH  078%=      5-min Rain = 0
KFR1 141149Z 33008KT 19/15 A3027 RMK A01 T01920152  RH  077%=      5-min Rain = 0
KFR1 141150Z 34004KT 19/15 A3027 RMK A01 T01920152  RH  078%=      5-min Rain = 0
KFR1 141151Z 34006KT 19/15 A3026 RMK A01 T01920153  RH  078%=      5-min Rain = 0
KFR1 141152Z 32006KT 19/15 A3026 RMK A01 T01930152  RH  077%=      5-min Rain = 0
KFR1 141153Z 32004KT 19/15 A3026 RMK A01 T01930153  RH  078%=      5-min Rain = 0
KFR1 141154Z 32005KT 19/15 A3026 RMK A01 T01930154  RH  078%=      5-min Rain = 0
KFR1 141155Z 33003KT 19/15 A3026 RMK A01 T01940153  RH  077%=      5-min Rain = 0
KFR1 141156Z 32004KT 20/15 A3026 RMK A01 T01950154  RH  077%=      5-min Rain = 0
KFR1 141157Z 32004KT 20/15 A3026 RMK A01 T01950154  RH  077%=      5-min Rain = 0
KFR1 141158Z 33006KT 20/15 A3026 RMK A01 T01960153  RH  076%=      5-min Rain = 0
KFR1 141159Z 33004G9KT 20/16 A3026 RMK A01 T01970155  RH  077%=      5-min Rain = 0
KFR1 141200Z 32005KT 20/15 A3026 RMK A01 T01970154  RH  076%=      5-min Rain = 0
KFR1 141201Z 33006KT 20/15 A3026 RMK A01 T01970153  RH  076%=      5-min Rain = 0
KFR1 141202Z 32005KT 20/15 A3026 RMK A01 T01970152  RH  075%=      5-min Rain = 0
KFR1 141203Z 32007G12KT 20/15 A3026 RMK A01 T01970153  RH  075%=      5-min Rain = 0
KFR1 141204Z 32007G12KT 20/15 A3026 RMK A01 T01980152  RH  075%=      5-min Rain = 0
KFR1 141205Z 32007G12KT 20/15 A3026 RMK A01 T01980153  RH  075%=      5-min Rain = 0
KFR1 141206Z 32010KT 20/15 A3026 RMK A01 T01990153  RH  075%=      5-min Rain = 0
KFR1 141207Z 32010G15KT 20/15 A3025 RMK A01 T01990149  RH  073%=      5-min Rain = 0
KFR1 141208Z 33008KT 20/15 A3025 RMK A01 T02000151  RH  073%=      5-min Rain = 0
KFR1 141209Z 32010KT 20/15 A3025 RMK A01 T02000151  RH  073%=      5-min Rain = 0
KFR1 141210Z 33007KT 20/15 A3025 RMK A01 T02010153  RH  074%=      5-min Rain = 0
KFR1 141211Z 32009G16KT 20/15 A3025 RMK A01 T02020152  RH  073%=      5-min Rain = 0
KFR1 141212Z 33009KT 20/15 A3025 RMK A01 T02040153  RH  073%=      5-min Rain = 0
KFR1 141213Z 33007KT 21/15 A3026 RMK A01 T02050154  RH  073%=      5-min Rain = 0
KFR1 141214Z 33012G17KT 21/15 A3026 RMK A01 T02050150  RH  071%=      5-min Rain = 0
KFR1 141215Z 33012G22KT 20/15 A3025 RMK A01 T02040152  RH  072%=      5-min Rain = 0
KFR1 141216Z 33015KT 20/15 A3025 RMK A01 T02030151  RH  072%=      5-min Rain = 0
KFR1 141217Z 33012KT 20/15 A3025 RMK A01 T02010151  RH  073%=      5-min Rain = 0
KFR1 141218Z 33013KT 20/16 A3025 RMK A01 T01990155  RH  075%=      5-min Rain = 0
KFR1 141219Z 33011G18KT 20/15 A3025 RMK A01 T01980153  RH  075%=      5-min Rain = 0
KFR1 141220Z 33010KT 20/15 A3025 RMK A01 T01980152  RH  075%=      5-min Rain = 0
KFR1 141221Z 33012KT 20/15 A3025 RMK A01 T01980154  RH  076%=      5-min Rain = 0
KFR1 141222Z 33011KT 20/15 A3025 RMK A01 T01980153  RH  075%=      5-min Rain = 0
KFR1 141223Z 34011G16KT 20/15 A3025 RMK A01 T01990152  RH  074%=      5-min Rain = 0
KFR1 141224Z 34009KT 20/15 A3025 RMK A01 T02000151  RH  074%=      5-min Rain = 0
KFR1 141225Z 34011KT 20/15 A3025 RMK A01 T02010154  RH  075%=      5-min Rain = 0
KFR1 141226Z 34009G14KT 20/15 A3025 RMK A01 T02010154  RH  074%=      5-min Rain = 0
KFR1 141227Z 33012G18KT 20/16 A3025 RMK A01 T02010155  RH  075%=      5-min Rain = 0
KFR1 141228Z 33012KT 20/15 A3024 RMK A01 T02010152  RH  073%=      5-min Rain = 0
KFR1 141229Z 33012G19KT 20/15 A3024 RMK A01 T02020152  RH  073%=      5-min Rain = 0
KFR1 141230Z 33014KT 20/15 A3025 RMK A01 T02020152  RH  073%=      5-min Rain = 0
KFR1 141231Z 33013G19KT 20/15 A3025 RMK A01 T02010151  RH  073%=      5-min Rain = 0
KFR1 141232Z 33014KT 20/15 A3025 RMK A01 T02010152  RH  074%=      5-min Rain = 0
KFR1 141233Z 33012KT 20/15 A3025 RMK A01 T02010152  RH  073%=      5-min Rain = 0
KFR1 141234Z 33013KT 20/15 A3025 RMK A01 T02010151  RH  073%=      5-min Rain = 0
KFR1 141235Z 33013KT 20/15 A3025 RMK A01 T02020150  RH  072%=      5-min Rain = 0
KFR1 141236Z 33011G16KT 20/15 A3025 RMK A01 T02030149  RH  071%=      5-min Rain = 0
KFR1 141237Z 33011KT 20/15 A3025 RMK A01 T02030150  RH  072%=      5-min Rain = 0
KFR1 141238Z 33012KT 20/15 A3025 RMK A01 T02020150  RH  072%=      5-min Rain = 0
KFR1 141239Z 34008KT 20/15 A3025 RMK A01 T02020149  RH  071%=      5-min Rain = 0
KFR1 141240Z 34007KT 20/15 A3024 RMK A01 T02020152  RH  073%=      5-min Rain = 0
KFR1 141241Z 35006KT 20/15 A3024 RMK A01 T02020151  RH  073%=      5-min Rain = 0
KFR1 141242Z 35006KT 20/15 A3024 RMK A01 T02030146  RH  070%=      5-min Rain = 0
KFR1 141243Z 01006KT 20/15 A3024 RMK A01 T02040145  RH  069%=      5-min Rain = 0
KFR1 141244Z 03004KT 21/14 A3023 RMK A01 T02060144  RH  067%=      5-min Rain = 0
KFR1 141245Z 07005KT 21/15 A3023 RMK A01 T02070149  RH  069%=      5-min Rain = 0
KFR1 141246Z 08005KT 21/15 A3023 RMK A01 T02070150  RH  070%=      5-min Rain = 0
KFR1 141247Z 09006KT 21/15 A3022 RMK A01 T02070147  RH  069%=      5-min Rain = 0
KFR1 141248Z 10008KT 21/15 A3022 RMK A01 T02070151  RH  070%=      5-min Rain = 0
KFR1 141249Z 11009KT 21/15 A3022 RMK A01 T02050151  RH  071%=      5-min Rain = 0
KFR1 141250Z 11009KT 20/15 A3021 RMK A01 T02030150  RH  071%=      5-min Rain = 0.01
KFR1 141251Z 11009KT 20/15 A3021 RMK A01 T02030149  RH  071%=      5-min Rain = 0
KFR1 141252Z 12008KT 20/14 A302 RMK A01 T02030144  RH  069%=      5-min Rain = 0
KFR1 141253Z 12007KT 21/14 A302 RMK A01 T02060144  RH  068%=      5-min Rain = 0
KFR1 141254Z 13006KT 21/15 A302 RMK A01 T02070145  RH  067%=      5-min Rain = 0
KFR1 141255Z 12006KT 21/14 A302 RMK A01 T02070144  RH  067%=      5-min Rain = 0
KFR1 141256Z 11005KT 21/14 A3021 RMK A01 T02080144  RH  067%=      5-min Rain = 0
KFR1 141257Z 10005KT 21/15 A3021 RMK A01 T02080145  RH  067%=      5-min Rain = 0
KFR1 141258Z 10004KT 21/15 A3022 RMK A01 T02090145  RH  067%=      5-min Rain = 0
KFR1 141259Z 09001KT 21/14 A3022 RMK A01 T02100137  RH  063%=      5-min Rain = 0
KFR1 141300Z 10002KT 21/14 A3022 RMK A01 T02110141  RH  064%=      5-min Rain = 0
KFR1 141301Z 10001KT 21/14 A3022 RMK A01 T02120144  RH  065%=      5-min Rain = 0
KFR1 141302Z 07001KT 21/14 A3022 RMK A01 T02120143  RH  065%=      5-min Rain = 0
KFR1 141303Z 25002KT 21/14 A3022 RMK A01 T02120144  RH  065%=      5-min Rain = 0
KFR1 141304Z 23002KT 21/15 A3021 RMK A01 T02120148  RH  067%=      5-min Rain = 0
KFR1 141305Z 22002KT 21/14 A3021 RMK A01 T02110141  RH  064%=      5-min Rain = 0
KFR1 141306Z 22003KT 21/14 A3021 RMK A01 T02130137  RH  062%=      5-min Rain = 0
KFR1 141307Z 19002KT 22/14 A3021 RMK A01 T02150139  RH  062%=      5-min Rain = 0
KFR1 141308Z 18003KT 22/14 A3021 RMK A01 T02160142  RH  063%=      5-min Rain = 0
KFR1 141309Z 16004KT 22/14 A3021 RMK A01 T02160144  RH  063%=      5-min Rain = 0
KFR1 141310Z 14004KT 22/15 A3021 RMK A01 T02160146  RH  064%=      5-min Rain = 0
KFR1 141311Z 15005KT 22/14 A302 RMK A01 T02160141  RH  062%=      5-min Rain = 0
KFR1 141312Z 15006KT 22/15 A302 RMK A01 T02160150  RH  066%=      5-min Rain = 0
KFR1 141313Z 15006KT 21/15 A302 RMK A01 T02130148  RH  066%=      5-min Rain = 0
KFR1 141314Z 15007KT 21/15 A302 RMK A01 T02120146  RH  066%=      5-min Rain = 0
KFR1 141315Z 14008KT 21/14 A302 RMK A01 T02120142  RH  064%=      5-min Rain = 0
KFR1 141316Z 15007KT 21/14 A302 RMK A01 T02140142  RH  063%=      5-min Rain = 0
KFR1 141317Z 13007KT 22/14 A302 RMK A01 T02160144  RH  063%=      5-min Rain = 0
KFR1 141318Z 14007KT 22/14 A3019 RMK A01 T02160144  RH  064%=      5-min Rain = 0
KFR1 141319Z 16007KT 22/15 A3019 RMK A01 T02170145  RH  064%=      5-min Rain = 0
KFR1 141320Z 16005KT 22/15 A3019 RMK A01 T02170146  RH  064%=      5-min Rain = 0
KFR1 141321Z 19005KT 22/15 A302 RMK A01 T02160148  RH  065%=      5-min Rain = 0
KFR1 141322Z 21005KT 22/15 A302 RMK A01 T02160146  RH  065%=      5-min Rain = 0
KFR1 141323Z 23007KT 22/15 A302 RMK A01 T02150150  RH  066%=      5-min Rain = 0
KFR1 141324Z 23010KT 21/15 A3021 RMK A01 T02130152  RH  068%=      5-min Rain = 0
KFR1 141325Z 23013KT 21/15 A3021 RMK A01 T02110150  RH  068%=      5-min Rain = 0
KFR1 141326Z 22016G21KT 21/15 A302 RMK A01 T02090149  RH  069%=      5-min Rain = 0
KFR1 141327Z 19011KT 21/15 A302 RMK A01 T02070148  RH  069%=      5-min Rain = 0
KFR1 141328Z 18008KT 21/15 A302 RMK A01 T02060150  RH  070%=      5-min Rain = 0
KFR1 141329Z 19010KT 20/15 A3019 RMK A01 T02040149  RH  071%=      5-min Rain = 0
KFR1 141330Z 21011KT 20/15 A3019 RMK A01 T02040146  RH  069%=      5-min Rain = 0
KFR1 141331Z 23013G18KT 21/15 A302 RMK A01 T02070145  RH  068%=      5-min Rain = 0
KFR1 141332Z 23017G23KT 21/15 A3019 RMK A01 T02080146  RH  067%=      5-min Rain = 0
KFR1 141333Z 23015G20KT 21/15 A3019 RMK A01 T02070148  RH  069%=      5-min Rain = 0
KFR1 141334Z 23014KT 21/15 A3019 RMK A01 T02050148  RH  070%=      5-min Rain = 0
KFR1 141335Z 23014KT 20/15 A3019 RMK A01 T02040148  RH  070%=      5-min Rain = 0
KFR1 141336Z 21012KT 20/15 A3019 RMK A01 T02040146  RH  069%=      5-min Rain = 0
KFR1 141337Z 21012KT 21/15 A3018 RMK A01 T02050145  RH  069%=      5-min Rain = 0
KFR1 141338Z 21014KT 21/14 A3018 RMK A01 T02060143  RH  067%=      5-min Rain = 0
KFR1 141339Z 20011KT 21/15 A3019 RMK A01 T02080145  RH  067%=      5-min Rain = 0
KFR1 141340Z 20010KT 21/15 A3019 RMK A01 T02080145  RH  067%=      5-min Rain = 0
KFR1 141341Z 21009KT 21/15 A3019 RMK A01 T02080146  RH  068%=      5-min Rain = 0
KFR1 141342Z 20010KT 21/15 A3019 RMK A01 T02070148  RH  069%=      5-min Rain = 0
KFR1 141343Z 20010KT 21/15 A3019 RMK A01 T02070146  RH  068%=      5-min Rain = 0
KFR1 141344Z 20008KT 21/15 A3019 RMK A01 T02070148  RH  069%=      5-min Rain = 0
KFR1 141345Z 20007KT 21/15 A3019 RMK A01 T02070149  RH  069%=      5-min Rain = 0
KFR1 141346Z 19009KT 21/15 A3019 RMK A01 T02060147  RH  069%=      5-min Rain = 0
KFR1 141347Z 18007KT 21/15 A302 RMK A01 T02060147  RH  069%=      5-min Rain = 0
KFR1 141348Z 17005KT 21/15 A302 RMK A01 T02060148  RH  069%=      5-min Rain = 0
KFR1 141349Z 18006KT 21/15 A3019 RMK A01 T02060150  RH  070%=      5-min Rain = 0
KFR1 141350Z 19008KT 21/15 A3019 RMK A01 T02060150  RH  070%=      5-min Rain = 0
KFR1 141351Z 19009KT 21/15 A3019 RMK A01 T02060147  RH  069%=      5-min Rain = 0
KFR1 141352Z 19009KT 21/15 A3019 RMK A01 T02060148  RH  070%=      5-min Rain = 0
KFR1 141353Z 20008KT 21/15 A3019 RMK A01 T02060149  RH  070%=      5-min Rain = 0
KFR1 141354Z 21006KT 21/15 A302 RMK A01 T02060149  RH  070%=      5-min Rain = 0
KFR1 141355Z 20007KT 21/15 A302 RMK A01 T02060148  RH  069%=      5-min Rain = 0
KFR1 141356Z 21007KT 21/15 A302 RMK A01 T02060150  RH  070%=      5-min Rain = 0
KFR1 141357Z 21009KT 21/15 A302 RMK A01 T02060150  RH  070%=      5-min Rain = 0
KFR1 141358Z 21008KT 21/15 A302 RMK A01 T02060151  RH  070%=      5-min Rain = 0
KFR1 141359Z 21010KT 21/15 A302 RMK A01 T02060152  RH  071%=      5-min Rain = 0
KFR1 141400Z 22007KT 21/15 A3021 RMK A01 T02060152  RH  071%=      5-min Rain = 0
KFR1 141401Z 24007KT 21/15 A3021 RMK A01 T02060151  RH  070%=      5-min Rain = 0
KFR1 141402Z 25007KT 21/15 A3021 RMK A01 T02060150  RH  070%=      5-min Rain = 0
KFR1 141403Z 26007KT 21/15 A3021 RMK A01 T02060149  RH  070%=      5-min Rain = 0
KFR1 141404Z 24007KT 21/15 A3021 RMK A01 T02070148  RH  069%=      5-min Rain = 0
KFR1 141405Z 22008KT 21/15 A3021 RMK A01 T02080148  RH  068%=      5-min Rain = 0
KFR1 141406Z 20008KT 21/15 A302 RMK A01 T02090150  RH  069%=      5-min Rain = 0
KFR1 141407Z 20009KT 21/15 A302 RMK A01 T02090151  RH  069%=      5-min Rain = 0
KFR1 141408Z 19009KT 21/15 A302 RMK A01 T02090152  RH  070%=      5-min Rain = 0
KFR1 141409Z 20009KT 21/15 A302 RMK A01 T02080154  RH  071%=      5-min Rain = 0
KFR1 141410Z 21007KT 21/15 A302 RMK A01 T02070154  RH  071%=      5-min Rain = 0
KFR1 141411Z 22007KT 21/15 A3021 RMK A01 T02080153  RH  071%=      5-min Rain = 0
KFR1 141412Z 22007KT 21/15 A3021 RMK A01 T02080152  RH  070%=      5-min Rain = 0
KFR1 141413Z 22007KT 21/15 A3021 RMK A01 T02090150  RH  069%=      5-min Rain = 0
KFR1 141414Z 22006KT 21/15 A3021 RMK A01 T02100149  RH  068%=      5-min Rain = 0
KFR1 141415Z 22004KT 21/15 A3021 RMK A01 T02100151  RH  069%=      5-min Rain = 0
KFR1 141416Z 22003KT 21/15 A3021 RMK A01 T02110150  RH  068%=      5-min Rain = 0
KFR1 141417Z 01002KT 21/15 A3022 RMK A01 T02110151  RH  069%=      5-min Rain = 0
KFR1 141418Z 03006KT 21/15 A3023 RMK A01 T02110153  RH  069%=      5-min Rain = 0
KFR1 141419Z 02007KT 21/16 A3023 RMK A01 T02110156  RH  071%=      5-min Rain = 0
KFR1 141420Z 36005KT 21/16 A3023 RMK A01 T02100156  RH  071%=      5-min Rain = 0
KFR1 141421Z 30004KT 21/15 A3024 RMK A01 T02090151  RH  069%=      5-min Rain = 0
KFR1 141422Z 26009KT 21/15 A3024 RMK A01 T02100154  RH  070%=      5-min Rain = 0
KFR1 141423Z 25011KT 21/16 A3024 RMK A01 T02110157  RH  071%=      5-min Rain = 0
KFR1 141424Z 25012KT 21/16 A3023 RMK A01 T02110159  RH  072%=      5-min Rain = 0
KFR1 141425Z 25011KT 21/16 A3023 RMK A01 T02110157  RH  071%=      5-min Rain = 0
KFR1 141426Z 25009KT 21/16 A3023 RMK A01 T02110158  RH  072%=      5-min Rain = 0
KFR1 141427Z 27006KT 21/16 A3023 RMK A01 T02110156  RH  071%=      5-min Rain = 0
KFR1 141428Z 30004KT 21/16 A3023 RMK A01 T02120157  RH  071%=      5-min Rain = 0
KFR1 141429Z 34003KT 21/15 A3023 RMK A01 T02120154  RH  070%=      5-min Rain = 0
KFR1 141430Z 00005KT 21/16 A3023 RMK A01 T02130156  RH  070%=      5-min Rain = 0
KFR1 141431Z 01005KT 21/16 A3024 RMK A01 T02140156  RH  070%=      5-min Rain = 0
KFR1 141432Z 00007KT 21/16 A3024 RMK A01 T02140155  RH  069%=      5-min Rain = 0
KFR1 141433Z 00008KT 22/16 A3025 RMK A01 T02150157  RH  069%=      5-min Rain = 0
KFR1 141434Z 01011KT 22/16 A3025 RMK A01 T02160158  RH  070%=      5-min Rain = 0
KFR1 141435Z 01013KT 22/16 A3026 RMK A01 T02160159  RH  070%=      5-min Rain = 0
KFR1 141436Z 01014G19KT 22/16 A3026 RMK A01 T02150161  RH  071%=      5-min Rain = 0
KFR1 141437Z 01017G26KT 22/16 A3026 RMK A01 T02150160  RH  071%=      5-min Rain = 0
KFR1 141438Z 02015G21KT 22/16 A3027 RMK A01 T02150156  RH  069%=      5-min Rain = 0
KFR1 141439Z 02010KT 22/16 A3027 RMK A01 T02170156  RH  069%=      5-min Rain = 0
KFR1 141440Z 01009KT 22/16 A3027 RMK A01 T02180155  RH  067%=      5-min Rain = 0
KFR1 141441Z 01012KT 22/15 A3027 RMK A01 T02200147  RH  063%=      5-min Rain = 0
KFR1 141442Z 03013KT 22/15 A3027 RMK A01 T02220151  RH  064%=      5-min Rain = 0
KFR1 141443Z 03013KT 22/15 A3027 RMK A01 T02240153  RH  064%=      5-min Rain = 0
KFR1 141444Z 03012KT 22/15 A3027 RMK A01 T02240154  RH  064%=      5-min Rain = 0
KFR1 141445Z 03014G19KT 23/15 A3027 RMK A01 T02250154  RH  064%=      5-min Rain = 0
KFR1 141446Z 02013G18KT 23/16 A3027 RMK A01 T02250155  RH  064%=      5-min Rain = 0
KFR1 141447Z 03013KT 23/16 A3027 RMK A01 T02250156  RH  065%=      5-min Rain = 0
KFR1 141448Z 03012KT 23/15 A3027 RMK A01 T02250150  RH  063%=      5-min Rain = 0
KFR1 141449Z 04016KT 22/15 A3027 RMK A01 T02240148  RH  062%=      5-min Rain = 0
KFR1 141450Z 04014KT 22/15 A3027 RMK A01 T02240151  RH  063%=      5-min Rain = 0
KFR1 141451Z 04017KT 22/15 A3027 RMK A01 T02230153  RH  064%=      5-min Rain = 0
KFR1 141452Z 04017KT 22/15 A3027 RMK A01 T02210149  RH  063%=      5-min Rain = 0
KFR1 141453Z 03014G20KT 22/15 A3027 RMK A01 T02200150  RH  065%=      5-min Rain = 0
KFR1 141454Z 03016G21KT 22/15 A3027 RMK A01 T02180152  RH  066%=      5-min Rain = 0
KFR1 141455Z 04012KT 22/15 A3028 RMK A01 T02170153  RH  067%=      5-min Rain = 0
KFR1 141456Z 03017KT 22/15 A3028 RMK A01 T02160153  RH  067%=      5-min Rain = 0
KFR1 141457Z 04017KT 22/15 A3028 RMK A01 T02160152  RH  067%=      5-min Rain = 0
KFR1 141458Z 03015KT 22/15 A3028 RMK A01 T02150153  RH  068%=      5-min Rain = 0
KFR1 141459Z 03014KT 22/16 A3028 RMK A01 T02150155  RH  068%=      5-min Rain = 0
KFR1 141500Z 03010G15KT 22/16 A3029 RMK A01 T02150156  RH  069%=      5-min Rain = 0
KFR1 141501Z 03012KT 22/16 A3029 RMK A01 T02150156  RH  069%=      5-min Rain = 0
KFR1 141502Z 04013KT 22/16 A3029 RMK A01 T02150157  RH  070%=      5-min Rain = 0
KFR1 141503Z 03014G19KT 22/16 A3029 RMK A01 T02150155  RH  069%=      5-min Rain = 0
KFR1 141504Z 04013KT 21/16 A3029 RMK A01 T02140155  RH  069%=      5-min Rain = 0
KFR1 141505Z 04016KT 22/15 A3029 RMK A01 T02150154  RH  068%=      5-min Rain = 0
KFR1 141506Z 04013KT 21/15 A3029 RMK A01 T02140152  RH  068%=      5-min Rain = 0
KFR1 141507Z 04010KT 21/16 A3029 RMK A01 T02140155  RH  069%=      5-min Rain = 0
KFR1 141508Z 05012KT 21/15 A3029 RMK A01 T02140154  RH  068%=      5-min Rain = 0
KFR1 141509Z 05016KT 21/15 A3029 RMK A01 T02140152  RH  068%=      5-min Rain = 0
KFR1 141510Z 05014G19KT 21/15 A3029 RMK A01 T02140148  RH  066%=      5-min Rain = 0
KFR1 141511Z 04015KT 21/15 A3029 RMK A01 T02140149  RH  067%=      5-min Rain = 0
KFR1 141512Z 04015KT 21/15 A3029 RMK A01 T02140149  RH  067%=      5-min Rain = 0
KFR1 141513Z 05013KT 21/15 A3029 RMK A01 T02140149  RH  067%=      5-min Rain = 0
KFR1 141514Z 05013KT 21/15 A3029 RMK A01 T02140150  RH  067%=      5-min Rain = 0
KFR1 141515Z 04016KT 21/15 A3029 RMK A01 T02140150  RH  067%=      5-min Rain = 0
KFR1 141516Z 04013KT 21/15 A3029 RMK A01 T02140152  RH  068%=      5-min Rain = 0
KFR1 141517Z 05013KT 21/15 A3029 RMK A01 T02140152  RH  068%=      5-min Rain = 0
KFR1 141518Z 05012G17KT 21/15 A3029 RMK A01 T02140152  RH  068%=      5-min Rain = 0
KFR1 141519Z 05012KT 21/15 A3029 RMK A01 T02140152  RH  068%=      5-min Rain = 0
KFR1 141520Z 06012KT 21/15 A3029 RMK A01 T02140152  RH  068%=      5-min Rain = 0
KFR1 141521Z 05011G16KT 21/15 A3029 RMK A01 T02140152  RH  068%=      5-min Rain = 0
KFR1 141522Z 04012KT 21/15 A3029 RMK A01 T02140153  RH  068%=      5-min Rain = 0
KFR1 141523Z 04013KT 21/15 A3029 RMK A01 T02140154  RH  068%=      5-min Rain = 0
KFR1 141524Z 04013KT 21/15 A3029 RMK A01 T02140152  RH  068%=      5-min Rain = 0
KFR1 141525Z 04012KT 21/15 A303 RMK A01 T02140153  RH  068%=      5-min Rain = 0
KFR1 141526Z 05012KT 21/15 A303 RMK A01 T02140154  RH  069%=      5-min Rain = 0
KFR1 141527Z 05012KT 21/15 A3029 RMK A01 T02140154  RH  069%=      5-min Rain = 0
KFR1 141528Z 05012KT 21/15 A3029 RMK A01 T02140154  RH  069%=      5-min Rain = 0
KFR1 141529Z 05011KT 21/15 A3029 RMK A01 T02140154  RH  069%=      5-min Rain = 0
KFR1 141530Z 04010KT 21/15 A3029 RMK A01 T02130153  RH  069%=      5-min Rain = 0
KFR1 141531Z 05010KT 22/16 A3029 RMK A01 T02150155  RH  069%=      5-min Rain = 0
KFR1 141532Z 05011KT 22/16 A3029 RMK A01 T02180159  RH  069%=      5-min Rain = 0
KFR1 141533Z 05009KT 22/16 A3029 RMK A01 T02200159  RH  068%=      5-min Rain = 0
KFR1 141534Z 05011KT 22/16 A3029 RMK A01 T02240162  RH  068%=      5-min Rain = 0
KFR1 141535Z 05012KT 23/16 A3029 RMK A01 T02250161  RH  067%=      5-min Rain = 0
KFR1 141536Z 05011KT 23/16 A3029 RMK A01 T02260162  RH  067%=      5-min Rain = 0
KFR1 141537Z 04012KT 23/16 A3029 RMK A01 T02270162  RH  067%=      5-min Rain = 0
KFR1 141538Z 04011KT 23/16 A3029 RMK A01 T02260159  RH  066%=      5-min Rain = 0
KFR1 141539Z 04010KT 22/16 A3029 RMK A01 T02240160  RH  067%=      5-min Rain = 0
KFR1 141540Z 04007KT 23/16 A3029 RMK A01 T02250163  RH  068%=      5-min Rain = 0
KFR1 141541Z 01011KT 23/16 A3029 RMK A01 T02270163  RH  067%=      5-min Rain = 0
KFR1 141542Z 02013G18KT 23/16 A3029 RMK A01 T02270163  RH  067%=      5-min Rain = 0
KFR1 141543Z 02012G17KT 23/16 A3029 RMK A01 T02260162  RH  067%=      5-min Rain = 0
KFR1 141544Z 02012KT 23/16 A3029 RMK A01 T02250162  RH  068%=      5-min Rain = 0
KFR1 141545Z 02008KT 23/17 A3029 RMK A01 T02260165  RH  068%=      5-min Rain = 0
KFR1 141546Z 02010KT 23/17 A3029 RMK A01 T02290167  RH  068%=      5-min Rain = 0
KFR1 141547Z 01010KT 23/16 A3029 RMK A01 T02290163  RH  066%=      5-min Rain = 0
KFR1 141548Z 01008KT 23/16 A3029 RMK A01 T02290164  RH  067%=      5-min Rain = 0
KFR1 141549Z 02010KT 23/16 A3029 RMK A01 T02280163  RH  066%=      5-min Rain = 0
KFR1 141550Z 04007KT 23/17 A3029 RMK A01 T02270165  RH  068%=      5-min Rain = 0
KFR1 141551Z 03005G10KT 23/16 A3029 RMK A01 T02270164  RH  067%=      5-min Rain = 0
KFR1 141552Z 03004KT 23/17 A3029 RMK A01 T02260165  RH  068%=      5-min Rain = 0
KFR1 141553Z 04006KT 23/17 A3029 RMK A01 T02260167  RH  069%=      5-min Rain = 0
KFR1 141554Z 04008KT 23/16 A3029 RMK A01 T02260164  RH  068%=      5-min Rain = 0
KFR1 141555Z 05008KT 23/17 A3029 RMK A01 T02260166  RH  069%=      5-min Rain = 0
KFR1 141556Z 07009KT 23/16 A3029 RMK A01 T02260161  RH  067%=      5-min Rain = 0
KFR1 141557Z 07009KT 23/16 A3029 RMK A01 T02250161  RH  067%=      5-min Rain = 0
KFR1 141558Z 07008KT 23/17 A3029 RMK A01 T02270166  RH  068%=      5-min Rain = 0
KFR1 141559Z 06008KT 23/17 A3028 RMK A01 T02320166  RH  066%=      5-min Rain = 0
KFR1 141600Z 06009KT 23/16 A3028 RMK A01 T02330164  RH  065%=      5-min Rain = 0
KFR1 141601Z 07011KT 23/16 A3028 RMK A01 T02310162  RH  065%=      5-min Rain = 0
KFR1 141602Z 06010KT 23/16 A3028 RMK A01 T02280159  RH  065%=      5-min Rain = 0
KFR1 141603Z 05008KT 23/16 A3028 RMK A01 T02270161  RH  066%=      5-min Rain = 0
KFR1 141604Z 04006KT 23/16 A3028 RMK A01 T02260161  RH  067%=      5-min Rain = 0
KFR1 141605Z 06008KT 23/16 A3028 RMK A01 T02250162  RH  067%=      5-min Rain = 0
KFR1 141606Z 05009KT 23/16 A3028 RMK A01 T02260158  RH  066%=      5-min Rain = 0
KFR1 141607Z 06011KT 23/16 A3027 RMK A01 T02250156  RH  065%=      5-min Rain = 0
KFR1 141608Z 05009KT 22/16 A3027 RMK A01 T02240157  RH  066%=      5-min Rain = 0
KFR1 141609Z 04008KT 22/16 A3027 RMK A01 T02240161  RH  067%=      5-min Rain = 0
KFR1 141610Z 04006KT 23/16 A3027 RMK A01 T02260161  RH  066%=      5-min Rain = 0
KFR1 141611Z 04008KT 23/16 A3027 RMK A01 T02270158  RH  065%=      5-min Rain = 0
KFR1 141612Z 04006KT 23/16 A3027 RMK A01 T02270156  RH  064%=      5-min Rain = 0
KFR1 141613Z 06007KT 23/16 A3027 RMK A01 T02280158  RH  065%=      5-min Rain = 0
KFR1 141614Z 04008KT 23/16 A3027 RMK A01 T02290159  RH  065%=      5-min Rain = 0
KFR1 141615Z 04007KT 23/16 A3027 RMK A01 T02320160  RH  064%=      5-min Rain = 0
KFR1 141616Z 01006KT 24/16 A3028 RMK A01 T02360163  RH  063%=      5-min Rain = 0
KFR1 141617Z 03008KT 24/16 A3028 RMK A01 T02370159  RH  062%=      5-min Rain = 0
KFR1 141618Z 04007KT 24/16 A3028 RMK A01 T02360160  RH  062%=      5-min Rain = 0
KFR1 141619Z 03005KT 24/16 A3028 RMK A01 T02350161  RH  063%=      5-min Rain = 0
KFR1 141620Z 01004KT 24/16 A3028 RMK A01 T02350162  RH  063%=      5-min Rain = 0
KFR1 141621Z 00005KT 24/16 A3028 RMK A01 T02360159  RH  062%=      5-min Rain = 0
KFR1 141622Z 01004KT 24/16 A3028 RMK A01 T02350160  RH  063%=      5-min Rain = 0
KFR1 141623Z 01006KT 24/16 A3028 RMK A01 T02360164  RH  064%=      5-min Rain = 0
KFR1 141624Z 35006KT 24/16 A3028 RMK A01 T02380161  RH  062%=      5-min Rain = 0
KFR1 141625Z 03005KT 24/17 A3028 RMK A01 T02390165  RH  063%=      5-min Rain = 0
KFR1 141626Z 02004KT 24/16 A3028 RMK A01 T02420160  RH  060%=      5-min Rain = 0
KFR1 141627Z 00004KT 24/16 A3028 RMK A01 T02410161  RH  061%=      5-min Rain = 0
KFR1 141628Z 03005KT 24/16 A3028 RMK A01 T02400162  RH  061%=      5-min Rain = 0
KFR1 141629Z 03005KT 24/16 A3028 RMK A01 T02410163  RH  062%=      5-min Rain = 0
KFR1 141630Z 00003KT 24/16 A3028 RMK A01 T02420162  RH  061%=      5-min Rain = 0
KFR1 141631Z 00001KT 24/16 A3028 RMK A01 T02420159  RH  060%=      5-min Rain = 0
KFR1 141632Z 01003KT 24/16 A3028 RMK A01 T02410159  RH  060%=      5-min Rain = 0
KFR1 141633Z 03005KT 24/16 A3027 RMK A01 T02420164  RH  062%=      5-min Rain = 0
KFR1 141634Z 05006KT 25/16 A3027 RMK A01 T02450163  RH  060%=      5-min Rain = 0
KFR1 141635Z 06006KT 25/16 A3027 RMK A01 T02450158  RH  058%=      5-min Rain = 0
KFR1 141636Z 06006KT 24/16 A3027 RMK A01 T02430156  RH  058%=      5-min Rain = 0
KFR1 141637Z 05006KT 24/16 A3027 RMK A01 T02410156  RH  059%=      5-min Rain = 0
KFR1 141638Z 05006KT 24/16 A3027 RMK A01 T02400156  RH  059%=      5-min Rain = 0
KFR1 141639Z 05005KT 24/16 A3027 RMK A01 T02400159  RH  060%=      5-min Rain = 0
KFR1 141640Z 07006KT 24/16 A3027 RMK A01 T02410159  RH  060%=      5-min Rain = 0
KFR1 141641Z 06005KT 24/16 A3027 RMK A01 T02410156  RH  059%=      5-min Rain = 0
KFR1 141642Z 05005KT 24/16 A3026 RMK A01 T02400157  RH  060%=      5-min Rain = 0
KFR1 141643Z 03002KT 24/15 A3027 RMK A01 T02390154  RH  059%=      5-min Rain = 0
KFR1 141644Z 01003KT 24/16 A3027 RMK A01 T02370155  RH  060%=      5-min Rain = 0
KFR1 141645Z 02002KT 24/16 A3026 RMK A01 T02370155  RH  060%=      5-min Rain = 0
KFR1 141646Z 35001KT 24/16 A3026 RMK A01 T02390158  RH  061%=      5-min Rain = 0
KFR1 141647Z 08003KT 24/16 A3026 RMK A01 T02410160  RH  061%=      5-min Rain = 0
KFR1 141648Z 02004KT 24/16 A3026 RMK A01 T02430160  RH  060%=      5-min Rain = 0
KFR1 141649Z 00004KT 24/16 A3026 RMK A01 T02430161  RH  060%=      5-min Rain = 0
KFR1 141650Z 01004KT 24/16 A3026 RMK A01 T02440159  RH  059%=      5-min Rain = 0
KFR1 141651Z 00003KT 24/16 A3026 RMK A01 T02440157  RH  058%=      5-min Rain = 0
KFR1 141652Z 00001KT 24/16 A3026 RMK A01 T02440158  RH  059%=      5-min Rain = 0
KFR1 141653Z 03001KT 25/16 A3026 RMK A01 T02460162  RH  059%=      5-min Rain = 0
KFR1 141654Z 03002KT 25/16 A3026 RMK A01 T02480158  RH  057%=      5-min Rain = 0
KFR1 141655Z 01001KT 25/16 A3026 RMK A01 T02480157  RH  057%=      5-min Rain = 0
KFR1 141656Z 09002KT 25/16 A3026 RMK A01 T02490159  RH  057%=      5-min Rain = 0
KFR1 141657Z 13002KT 25/16 A3026 RMK A01 T02500157  RH  056%=      5-min Rain = 0
KFR1 141658Z 14003KT 25/16 A3026 RMK A01 T02510156  RH  056%=      5-min Rain = 0
KFR1 141659Z 15002KT 25/16 A3026 RMK A01 T02500156  RH  056%=      5-min Rain = 0
KFR1 141700Z 20003KT 25/16 A3026 RMK A01 T02500158  RH  057%=      5-min Rain = 0
KFR1 141701Z 19003KT 25/16 A3025 RMK A01 T02510158  RH  056%=      5-min Rain = 0
KFR1 141702Z 16004KT 25/16 A3025 RMK A01 T02520161  RH  057%=      5-min Rain = 0
KFR1 141703Z 17003KT 26/16 A3025 RMK A01 T02550159  RH  055%=      5-min Rain = 0
KFR1 141704Z 19002KT 25/16 A3025 RMK A01 T02540158  RH  055%=      5-min Rain = 0
KFR1 141705Z 18004KT 25/16 A3024 RMK A01 T02530160  RH  056%=      5-min Rain = 0
KFR1 141706Z 17004KT 25/16 A3024 RMK A01 T02540158  RH  055%=      5-min Rain = 0
KFR1 141707Z 16004KT 26/16 A3024 RMK A01 T02550155  RH  054%=      5-min Rain = 0
KFR1 141708Z 15004KT 25/16 A3023 RMK A01 T02540156  RH  055%=      5-min Rain = 0
KFR1 141709Z 17006KT 25/15 A3023 RMK A01 T02530153  RH  054%=      5-min Rain = 0
KFR1 141710Z 18004KT 25/15 A3023 RMK A01 T02510151  RH  054%=      5-min Rain = 0
KFR1 141711Z 17003KT 25/15 A3023 RMK A01 T02490152  RH  055%=      5-min Rain = 0
KFR1 141712Z 10004KT 25/15 A3023 RMK A01 T02500147  RH  053%=      5-min Rain = 0
KFR1 141713Z 10005KT 25/15 A3023 RMK A01 T02500149  RH  053%=      5-min Rain = 0
KFR1 141714Z 09004KT 25/15 A3023 RMK A01 T02500149  RH  053%=      5-min Rain = 0
KFR1 141715Z 09004KT 25/15 A3023 RMK A01 T02480149  RH  054%=      5-min Rain = 0
KFR1 141716Z 09003KT 25/15 A3022 RMK A01 T02480151  RH  055%=      5-min Rain = 0
KFR1 141717Z 10003KT 25/15 A3022 RMK A01 T02480147  RH  054%=      5-min Rain = 0
KFR1 141718Z 10002KT 25/15 A3022 RMK A01 T02480149  RH  054%=      5-min Rain = 0
KFR1 141719Z 11001KT 25/15 A3022 RMK A01 T02480149  RH  054%=      5-min Rain = 0
KFR1 141720Z 17003KT 25/15 A3021 RMK A01 T02480151  RH  055%=      5-min Rain = 0
KFR1 141721Z 13002KT 25/15 A3021 RMK A01 T02500153  RH  055%=      5-min Rain = 0
KFR1 141722Z 14005KT 25/15 A3021 RMK A01 T02520152  RH  054%=      5-min Rain = 0
KFR1 141723Z 16004KT 25/15 A302 RMK A01 T02530152  RH  054%=      5-min Rain = 0
KFR1 141724Z 15005KT 25/15 A302 RMK A01 T02520153  RH  054%=      5-min Rain = 0
KFR1 141725Z 14006KT 25/16 A3019 RMK A01 T02530155  RH  054%=      5-min Rain = 0
KFR1 141726Z 13008KT 25/15 A3019 RMK A01 T02540151  RH  053%=      5-min Rain = 0
KFR1 141727Z 12007KT 25/15 A3019 RMK A01 T02530153  RH  054%=      5-min Rain = 0
KFR1 141728Z 14004KT 25/15 A302 RMK A01 T02530151  RH  053%=      5-min Rain = 0
KFR1 141729Z 08003KT 25/15 A302 RMK A01 T02540153  RH  053%=      5-min Rain = 0
KFR1 141730Z 06004KT 26/15 A3021 RMK A01 T02560153  RH  053%=      5-min Rain = 0
KFR1 141731Z 05004KT 26/15 A3022 RMK A01 T02560150  RH  052%=      5-min Rain = 0
KFR1 141732Z 00004KT 26/15 A3022 RMK A01 T02550154  RH  054%=      5-min Rain = 0
KFR1 141733Z 01005KT 26/16 A3022 RMK A01 T02550156  RH  054%=      5-min Rain = 0
KFR1 141734Z 00005KT 25/16 A3022 RMK A01 T02540157  RH  055%=      5-min Rain = 0
KFR1 141735Z 00004KT 26/16 A3022 RMK A01 T02550155  RH  054%=      5-min Rain = 0
KFR1 141736Z 36003KT 26/15 A3022 RMK A01 T02550154  RH  054%=      5-min Rain = 0
KFR1 141737Z 35002KT 26/15 A3022 RMK A01 T02560152  RH  053%=      5-min Rain = 0
KFR1 141738Z 04001KT 26/15 A3022 RMK A01 T02560152  RH  053%=      5-min Rain = 0
KFR1 141739Z 09001KT 26/15 A3021 RMK A01 T02570150  RH  052%=      5-min Rain = 0
KFR1 141740Z 11002KT 26/15 A3021 RMK A01 T02570149  RH  051%=      5-min Rain = 0
KFR1 141741Z 12003KT 26/15 A3021 RMK A01 T02580149  RH  051%=      5-min Rain = 0
KFR1 141742Z 10002KT 26/15 A3021 RMK A01 T02580149  RH  051%=      5-min Rain = 0
KFR1 141743Z 11003KT 26/15 A3021 RMK A01 T02590147  RH  050%=      5-min Rain = 0
KFR1 141744Z 06002KT 26/15 A3021 RMK A01 T02590152  RH  052%=      5-min Rain = 0
KFR1 141745Z 33003KT 26/16 A3021 RMK A01 T02610164  RH  055%=      5-min Rain = 0
KFR1 141746Z 32001KT 26/16 A3021 RMK A01 T02600163  RH  055%=      5-min Rain = 0
KFR1 141747Z 27002KT 26/16 A3021 RMK A01 T02570159  RH  055%=      5-min Rain = 0
KFR1 141748Z 26000KT 26/16 A3021 RMK A01 T02570162  RH  056%=      5-min Rain = 0
KFR1 141749Z 25002KT 26/16 A3021 RMK A01 T02570162  RH  056%=      5-min Rain = 0
KFR1 141750Z 24005KT 26/16 A3021 RMK A01 T02580164  RH  056%=      5-min Rain = 0
KFR1 141751Z 25006KT 26/16 A3021 RMK A01 T02610163  RH  055%=      5-min Rain = 0
KFR1 141752Z 26004KT 26/16 A3021 RMK A01 T02610160  RH  054%=      5-min Rain = 0
KFR1 141753Z 26005KT 26/16 A3022 RMK A01 T02600162  RH  055%=      5-min Rain = 0
KFR1 141754Z 27005KT 26/16 A3021 RMK A01 T02590164  RH  056%=      5-min Rain = 0
KFR1 141755Z 28004KT 26/16 A3021 RMK A01 T02600163  RH  055%=      5-min Rain = 0
KFR1 141756Z 28007KT 26/17 A3021 RMK A01 T02630165  RH  055%=      5-min Rain = 0
KFR1 141757Z 28006KT 26/17 A3021 RMK A01 T02630168  RH  056%=      5-min Rain = 0
KFR1 141758Z 28007KT 26/17 A3021 RMK A01 T02640169  RH  056%=      5-min Rain = 0
KFR1 141759Z 27006KT 26/17 A3021 RMK A01 T02640167  RH  055%=      5-min Rain = 0
KFR1 141800Z 27006KT 26/17 A3021 RMK A01 T02620166  RH  055%=      5-min Rain = 0
KFR1 141801Z 28004KT 26/17 A3021 RMK A01 T02630168  RH  056%=      5-min Rain = 0
KFR1 141802Z 27006KT 27/17 A3021 RMK A01 T02650165  RH  054%=      5-min Rain = 0
KFR1 141803Z 27005KT 27/17 A3021 RMK A01 T02680168  RH  054%=      5-min Rain = 0
KFR1 141804Z 28004KT 27/17 A3021 RMK A01 T02710167  RH  053%=      5-min Rain = 0
KFR1 141805Z 26006KT 27/17 A3021 RMK A01 T02730165  RH  052%=      5-min Rain = 0
KFR1 141806Z 26006KT 27/16 A3021 RMK A01 T02740161  RH  050%=      5-min Rain = 0
KFR1 141807Z 27007KT 27/16 A3021 RMK A01 T02730161  RH  050%=      5-min Rain = 0
KFR1 141808Z 26006KT 27/16 A3021 RMK A01 T02700160  RH  051%=      5-min Rain = 0
KFR1 141809Z 26006KT 27/16 A3021 RMK A01 T02700158  RH  050%=      5-min Rain = 0
KFR1 141810Z 28006KT 27/16 A3021 RMK A01 T02690161  RH  052%=      5-min Rain = 0
KFR1 141811Z 26006KT 27/16 A3021 RMK A01 T02680159  RH  051%=      5-min Rain = 0
KFR1 141812Z 24007KT 27/16 A3021 RMK A01 T02710159  RH  050%=      5-min Rain = 0
KFR1 141813Z 26006KT 27/16 A3021 RMK A01 T02720159  RH  050%=      5-min Rain = 0
KFR1 141814Z 27007KT 27/16 A3021 RMK A01 T02720162  RH  051%=      5-min Rain = 0
KFR1 141815Z 27007KT 27/16 A3021 RMK A01 T02710161  RH  051%=      5-min Rain = 0
KFR1 141816Z 28007KT 27/16 A3021 RMK A01 T02680163  RH  053%=      5-min Rain = 0
KFR1 141817Z 27007KT 27/16 A3021 RMK A01 T02670164  RH  053%=      5-min Rain = 0
KFR1 141818Z 28006KT 27/16 A302 RMK A01 T02680164  RH  053%=      5-min Rain = 0
KFR1 141819Z 28007KT 27/16 A302 RMK A01 T02690162  RH  052%=      5-min Rain = 0
KFR1 141820Z 28008KT 27/16 A302 RMK A01 T02690161  RH  051%=      5-min Rain = 0
KFR1 141821Z 28008KT 27/16 A302 RMK A01 T02690161  RH  052%=      5-min Rain = 0
KFR1 141822Z 28009KT 27/16 A302 RMK A01 T02700160  RH  051%=      5-min Rain = 0
KFR1 141823Z 28008KT 27/16 A302 RMK A01 T02700159  RH  050%=      5-min Rain = 0
KFR1 141824Z 28006KT 27/16 A302 RMK A01 T02700160  RH  051%=      5-min Rain = 0
KFR1 141825Z 28008KT 27/16 A302 RMK A01 T02700161  RH  051%=      5-min Rain = 0
KFR1 141826Z 28007KT 27/16 A302 RMK A01 T02710157  RH  050%=      5-min Rain = 0
KFR1 141827Z 28007KT 27/16 A302 RMK A01 T02700161  RH  051%=      5-min Rain = 0
KFR1 141828Z 28008KT 27/16 A302 RMK A01 T02700158  RH  050%=      5-min Rain = 0
KFR1 141829Z 28009KT 27/16 A302 RMK A01 T02710157  RH  050%=      5-min Rain = 0
KFR1 141830Z 28009KT 27/16 A302 RMK A01 T02720159  RH  050%=      5-min Rain = 0
KFR1 141831Z 27009KT 27/16 A302 RMK A01 T02720162  RH  051%=      5-min Rain = 0
KFR1 141832Z 27008KT 28/16 A302 RMK A01 T02750163  RH  050%=      5-min Rain = 0
KFR1 141833Z 27008KT 28/16 A302 RMK A01 T02780162  RH  049%=      5-min Rain = 0
KFR1 141834Z 27009KT 28/16 A302 RMK A01 T02790160  RH  048%=      5-min Rain = 0
KFR1 141835Z 27008KT 28/16 A302 RMK A01 T02790160  RH  048%=      5-min Rain = 0
KFR1 141836Z 27009KT 28/16 A302 RMK A01 T02790157  RH  047%=      5-min Rain = 0
KFR1 141837Z 26009KT 28/16 A302 RMK A01 T02790155  RH  047%=      5-min Rain = 0
KFR1 141838Z 27009KT 28/15 A302 RMK A01 T02810154  RH  046%=      5-min Rain = 0
KFR1 141839Z 27008KT 28/16 A302 RMK A01 T02830156  RH  046%=      5-min Rain = 0
KFR1 141840Z 27007KT 28/15 A302 RMK A01 T02840154  RH  045%=      5-min Rain = 0
KFR1 141841Z 27008KT 28/15 A302 RMK A01 T02830149  RH  044%=      5-min Rain = 0
KFR1 141842Z 27007KT 28/14 A302 RMK A01 T02810143  RH  043%=      5-min Rain = 0
KFR1 141843Z 27007KT 28/14 A302 RMK A01 T02810143  RH  043%=      5-min Rain = 0
KFR1 141844Z 26007KT 28/14 A302 RMK A01 T02810137  RH  041%=      5-min Rain = 0
KFR1 141845Z 27006KT 28/14 A302 RMK A01 T02810142  RH  043%=      5-min Rain = 0
KFR1 141846Z 27007KT 28/14 A302 RMK A01 T02830141  RH  042%=      5-min Rain = 0
KFR1 141847Z 26007KT 28/14 A302 RMK A01 T02840144  RH  043%=      5-min Rain = 0
KFR1 141848Z 26007KT 28/14 A302 RMK A01 T02840144  RH  042%=      5-min Rain = 0
KFR1 141849Z 28007KT 28/14 A302 RMK A01 T02830143  RH  042%=      5-min Rain = 0
KFR1 141850Z 28007KT 28/14 A302 RMK A01 T02820139  RH  041%=      5-min Rain = 0
KFR1 141851Z 27006KT 28/14 A302 RMK A01 T02810137  RH  041%=      5-min Rain = 0
KFR1 141852Z 27005KT 28/14 A3019 RMK A01 T02820141  RH  042%=      5-min Rain = 0
KFR1 141853Z 27004KT 29/14 A3019 RMK A01 T02850142  RH  042%=      5-min Rain = 0
KFR1 141854Z 27006KT 29/14 A3019 RMK A01 T02860140  RH  041%=      5-min Rain = 0
KFR1 141855Z 26005KT 29/12 A3019 RMK A01 T02850124  RH  037%=      5-min Rain = 0
KFR1 141856Z 28004KT 28/12 A3019 RMK A01 T02820122  RH  037%=      5-min Rain = 0
KFR1 141857Z 29005KT 28/13 A3019 RMK A01 T02810129  RH  039%=      5-min Rain = 0
KFR1 141858Z 28003KT 28/14 A3019 RMK A01 T02810136  RH  041%=      5-min Rain = 0
KFR1 141859Z 28005KT 28/14 A3019 RMK A01 T02820137  RH  041%=      5-min Rain = 0
KFR1 141900Z 28005KT 28/14 A3019 RMK A01 T02830138  RH  041%=      5-min Rain = 0
KFR1 141901Z 28006KT 28/14 A3019 RMK A01 T02840144  RH  042%=      5-min Rain = 0
KFR1 141902Z 28007KT 29/14 A3019 RMK A01 T02850143  RH  042%=      5-min Rain = 0
KFR1 141903Z 27006KT 29/15 A3019 RMK A01 T02860147  RH  043%=      5-min Rain = 0
KFR1 141904Z 27007KT 29/15 A3019 RMK A01 T02880153  RH  044%=      5-min Rain = 0
KFR1 141905Z 26008KT 29/15 A3019 RMK A01 T02910150  RH  042%=      5-min Rain = 0
KFR1 141906Z 28008KT 29/15 A3019 RMK A01 T02900148  RH  042%=      5-min Rain = 0
KFR1 141907Z 26008KT 29/15 A3019 RMK A01 T02890147  RH  042%=      5-min Rain = 0
KFR1 141908Z 27007KT 29/14 A3019 RMK A01 T02890139  RH  040%=      5-min Rain = 0
KFR1 141909Z 26007KT 29/14 A3019 RMK A01 T02880141  RH  041%=      5-min Rain = 0
KFR1 141910Z 26007KT 29/14 A3019 RMK A01 T02890137  RH  039%=      5-min Rain = 0
KFR1 141911Z 26006KT 29/14 A3019 RMK A01 T02890138  RH  040%=      5-min Rain = 0
KFR1 141912Z 28004KT 29/14 A3019 RMK A01 T02900138  RH  039%=      5-min Rain = 0
KFR1 141913Z 24008KT 29/13 A3019 RMK A01 T02920134  RH  038%=      5-min Rain = 0
KFR1 141914Z 24006KT 29/13 A3019 RMK A01 T02900129  RH  037%=      5-min Rain = 0
KFR1 141915Z 25006KT 29/13 A3019 RMK A01 T02880130  RH  038%=      5-min Rain = 0
KFR1 141916Z 24005KT 29/13 A3019 RMK A01 T02860131  RH  039%=      5-min Rain = 0
KFR1 141917Z 24007KT 29/13 A3019 RMK A01 T02880130  RH  038%=      5-min Rain = 0
KFR1 141918Z 25006KT 29/13 A3019 RMK A01 T02900133  RH  038%=      5-min Rain = 0
KFR1 141919Z 27007KT 29/14 A3019 RMK A01 T02920137  RH  039%=      5-min Rain = 0
KFR1 141920Z 25006KT 29/14 A3018 RMK A01 T02910139  RH  040%=      5-min Rain = 0
KFR1 141921Z 26009KT 29/14 A3018 RMK A01 T02910141  RH  040%=      5-min Rain = 0
KFR1 141922Z 25011KT 29/14 A3018 RMK A01 T02910140  RH  040%=      5-min Rain = 0
KFR1 141923Z 25010KT 29/14 A3018 RMK A01 T02900141  RH  040%=      5-min Rain = 0
KFR1 141924Z 24008KT 29/14 A3018 RMK A01 T02900140  RH  040%=      5-min Rain = 0
KFR1 141925Z 25006KT 29/14 A3018 RMK A01 T02910139  RH  039%=      5-min Rain = 0
KFR1 141926Z 24005KT 29/14 A3018 RMK A01 T02910138  RH  039%=      5-min Rain = 0
KFR1 141927Z 23004KT 29/14 A3018 RMK A01 T02890138  RH  040%=      5-min Rain = 0
KFR1 141928Z 22003KT 29/14 A3018 RMK A01 T02890139  RH  040%=      5-min Rain = 0
KFR1 141929Z 23004KT 29/14 A3018 RMK A01 T02890137  RH  039%=      5-min Rain = 0
KFR1 141930Z 21004KT 29/14 A3018 RMK A01 T02890138  RH  040%=      5-min Rain = 0
KFR1 141931Z 24003KT 29/14 A3018 RMK A01 T02880140  RH  040%=      5-min Rain = 0
KFR1 141932Z 28005KT 29/14 A3018 RMK A01 T02900143  RH  041%=      5-min Rain = 0
KFR1 141933Z 27004KT 29/15 A3018 RMK A01 T02930147  RH  041%=      5-min Rain = 0
KFR1 141934Z 26003KT 30/14 A3018 RMK A01 T02960138  RH  038%=      5-min Rain = 0
KFR1 141935Z 27004KT 30/14 A3018 RMK A01 T02960143  RH  039%=      5-min Rain = 0
KFR1 141936Z 28004KT 30/15 A3018 RMK A01 T02960146  RH  040%=      5-min Rain = 0
KFR1 141937Z 24003KT 30/14 A3018 RMK A01 T02950142  RH  039%=      5-min Rain = 0
KFR1 141938Z 27004KT 29/14 A3018 RMK A01 T02920142  RH  040%=      5-min Rain = 0
KFR1 141939Z 27006KT 29/15 A3018 RMK A01 T02910148  RH  042%=      5-min Rain = 0
KFR1 141940Z 26004KT 29/15 A3018 RMK A01 T02930145  RH  041%=      5-min Rain = 0
KFR1 141941Z 27005KT 29/15 A3018 RMK A01 T02930147  RH  041%=      5-min Rain = 0
KFR1 141942Z 28004KT 29/15 A3018 RMK A01 T02940145  RH  040%=      5-min Rain = 0
KFR1 141943Z 28006KT 29/15 A3018 RMK A01 T02940146  RH  040%=      5-min Rain = 0
KFR1 141944Z 28006KT 29/15 A3018 RMK A01 T02920146  RH  041%=      5-min Rain = 0
KFR1 141945Z 26008KT 29/15 A3018 RMK A01 T02920147  RH  041%=      5-min Rain = 0
KFR1 141946Z 26006KT 29/15 A3018 RMK A01 T02910148  RH  042%=      5-min Rain = 0
KFR1 141947Z 23006KT 29/15 A3018 RMK A01 T02910149  RH  042%=      5-min Rain = 0
KFR1 141948Z 21004KT 29/15 A3018 RMK A01 T02910147  RH  041%=      5-min Rain = 0
KFR1 141949Z 21003KT 29/15 A3017 RMK A01 T02900149  RH  042%=      5-min Rain = 0
KFR1 141950Z 20004KT 29/15 A3017 RMK A01 T02900149  RH  042%=      5-min Rain = 0
KFR1 141951Z 26006KT 29/15 A3017 RMK A01 T02920151  RH  042%=      5-min Rain = 0
KFR1 141952Z 26008KT 29/15 A3017 RMK A01 T02930150  RH  042%=      5-min Rain = 0
KFR1 141953Z 25006KT 29/15 A3017 RMK A01 T02940150  RH  041%=      5-min Rain = 0
KFR1 141954Z 24005KT 30/15 A3017 RMK A01 T02950146  RH  040%=      5-min Rain = 0
KFR1 141955Z 25009KT 30/15 A3017 RMK A01 T02950150  RH  041%=      5-min Rain = 0
KFR1 141956Z 25008KT 30/15 A3017 RMK A01 T02970147  RH  040%=      5-min Rain = 0
KFR1 141957Z 24006KT 30/15 A3017 RMK A01 T02970149  RH  040%=      5-min Rain = 0
KFR1 141958Z 23006KT 30/15 A3017 RMK A01 T02990152  RH  041%=      5-min Rain = 0
KFR1 141959Z 23007KT 30/15 A3017 RMK A01 T03010148  RH  039%=      5-min Rain = 0
KFR1 142000Z 23006KT 30/15 A3017 RMK A01 T02980149  RH  040%=      5-min Rain = 0
KFR1 142001Z 23006KT 30/15 A3017 RMK A01 T02980146  RH  040%=      5-min Rain = 0
KFR1 142002Z 22005KT 30/15 A3017 RMK A01 T03000152  RH  041%=      5-min Rain = 0
KFR1 142003Z 22006KT 30/15 A3017 RMK A01 T03020148  RH  039%=      5-min Rain = 0
KFR1 142004Z 22005KT 30/15 A3017 RMK A01 T03000149  RH  040%=      5-min Rain = 0
KFR1 142005Z 22005KT 30/15 A3017 RMK A01 T02990149  RH  040%=      5-min Rain = 0
KFR1 142006Z 23004KT 30/15 A3017 RMK A01 T02970146  RH  040%=      5-min Rain = 0
KFR1 142007Z 28004KT 30/15 A3017 RMK A01 T02960150  RH  041%=      5-min Rain = 0
KFR1 142008Z 30004KT 30/15 A3017 RMK A01 T02970147  RH  040%=      5-min Rain = 0
KFR1 142009Z 30004KT 30/15 A3017 RMK A01 T02960146  RH  040%=      5-min Rain = 0
KFR1 142010Z 32003KT 30/15 A3017 RMK A01 T02950147  RH  041%=      5-min Rain = 0
KFR1 142011Z 30002KT 30/15 A3017 RMK A01 T02960148  RH  041%=      5-min Rain = 0
KFR1 142012Z 25004KT 30/15 A3017 RMK A01 T02970149  RH  041%=      5-min Rain = 0
KFR1 142013Z 26004KT 30/15 A3017 RMK A01 T02980150  RH  041%=      5-min Rain = 0
KFR1 142014Z 26002KT 30/15 A3017 RMK A01 T02990150  RH  041%=      5-min Rain = 0
KFR1 142015Z 28002KT 30/15 A3017 RMK A01 T02990147  RH  040%=      5-min Rain = 0
KFR1 142016Z 24005G10KT 30/15 A3016 RMK A01 T02980152  RH  041%=      5-min Rain = 0
KFR1 142017Z 23006KT 30/15 A3016 RMK A01 T02990152  RH  041%=      5-min Rain = 0
KFR1 142018Z 22007KT 30/15 A3016 RMK A01 T03000151  RH  040%=      5-min Rain = 0
KFR1 142019Z 22004KT 30/15 A3016 RMK A01 T02970149  RH  040%=      5-min Rain = 0
KFR1 142020Z 20003KT 30/15 A3016 RMK A01 T02960149  RH  041%=      5-min Rain = 0
KFR1 142021Z 21004KT 30/15 A3016 RMK A01 T02950151  RH  041%=      5-min Rain = 0
KFR1 142022Z 22005KT 30/15 A3016 RMK A01 T02960152  RH  042%=      5-min Rain = 0
KFR1 142023Z 21005KT 30/15 A3016 RMK A01 T02970148  RH  040%=      5-min Rain = 0
KFR1 142024Z 19003KT 30/15 A3016 RMK A01 T02960150  RH  041%=      5-min Rain = 0
KFR1 142025Z 23004KT 30/15 A3016 RMK A01 T02970151  RH  041%=      5-min Rain = 0
KFR1 142026Z 24006KT 30/15 A3016 RMK A01 T03000151  RH  040%=      5-min Rain = 0
KFR1 142027Z 22007KT 30/15 A3016 RMK A01 T03010151  RH  040%=      5-min Rain = 0
KFR1 142028Z 22006KT 30/15 A3016 RMK A01 T03000150  RH  040%=      5-min Rain = 0
KFR1 142029Z 21006KT 30/15 A3016 RMK A01 T02980150  RH  041%=      5-min Rain = 0
KFR1 142030Z 21005KT 30/15 A3016 RMK A01 T02970152  RH  041%=      5-min Rain = 0
KFR1 142031Z 20002KT 30/15 A3016 RMK A01 T02990153  RH  041%=      5-min Rain = 0
KFR1 142032Z 24006KT 30/16 A3016 RMK A01 T03030155  RH  041%=      5-min Rain = 0
KFR1 142033Z 24004KT 31/15 A3016 RMK A01 T03050153  RH  040%=      5-min Rain = 0
KFR1 142034Z 23005KT 31/16 A3016 RMK A01 T03050157  RH  041%=      5-min Rain = 0
KFR1 142035Z 21006KT 31/16 A3016 RMK A01 T03060155  RH  040%=      5-min Rain = 0
KFR1 142036Z 21008KT 30/15 A3016 RMK A01 T03030154  RH  040%=      5-min Rain = 0
KFR1 142037Z 21007KT 30/15 A3016 RMK A01 T03000154  RH  041%=      5-min Rain = 0
KFR1 142038Z 22006KT 30/15 A3016 RMK A01 T03000154  RH  041%=      5-min Rain = 0
KFR1 142039Z 21005KT 30/15 A3016 RMK A01 T03020154  RH  041%=      5-min Rain = 0
KFR1 142040Z 20005KT 30/15 A3016 RMK A01 T03030153  RH  040%=      5-min Rain = 0
KFR1 142041Z 22005KT 30/16 A3016 RMK A01 T03010155  RH  041%=      5-min Rain = 0
KFR1 142042Z 23005KT 30/15 A3016 RMK A01 T03010152  RH  041%=      5-min Rain = 0
KFR1 142043Z 23003KT 30/15 A3016 RMK A01 T03000151  RH  040%=      5-min Rain = 0
KFR1 142044Z 23003KT 30/15 A3016 RMK A01 T02990150  RH  040%=      5-min Rain = 0
KFR1 142045Z 29003KT 30/15 A3016 RMK A01 T02990151  RH  041%=      5-min Rain = 0
KFR1 142046Z 32002KT 30/15 A3016 RMK A01 T03000150  RH  040%=      5-min Rain = 0
KFR1 142047Z 33002KT 30/15 A3016 RMK A01 T03010151  RH  040%=      5-min Rain = 0
KFR1 142048Z 32001KT 30/15 A3016 RMK A01 T03010151  RH  040%=      5-min Rain = 0
KFR1 142049Z 01001KT 30/15 A3016 RMK A01 T03010150  RH  040%=      5-min Rain = 0
KFR1 142050Z 34001KT 30/15 A3016 RMK A01 T03020150  RH  040%=      5-min Rain = 0
KFR1 142051Z 35001KT 30/15 A3016 RMK A01 T03020151  RH  040%=      5-min Rain = 0
KFR1 142052Z 31002KT 30/15 A3016 RMK A01 T03030154  RH  040%=      5-min Rain = 0
KFR1 142053Z 32002KT 30/15 A3016 RMK A01 T03040154  RH  040%=      5-min Rain = 0
KFR1 142054Z 33002KT 31/15 A3016 RMK A01 T03050152  RH  039%=      5-min Rain = 0
KFR1 142055Z 34001KT 30/15 A3015 RMK A01 T03030151  RH  040%=      5-min Rain = 0
KFR1 142056Z 05001KT 30/15 A3015 RMK A01 T03030151  RH  040%=      5-min Rain = 0
KFR1 142057Z 05001KT 30/15 A3015 RMK A01 T03030150  RH  040%=      5-min Rain = 0
KFR1 142058Z 05002KT 30/15 A3015 RMK A01 T03030152  RH  040%=      5-min Rain = 0
KFR1 142059Z 07002KT 30/15 A3015 RMK A01 T03030151  RH  040%=      5-min Rain = 0
KFR1 142100Z 06003KT 30/15 A3015 RMK A01 T03030151  RH  040%=      5-min Rain = 0
KFR1 142101Z 11001KT 30/15 A3015 RMK A01 T03020149  RH  039%=      5-min Rain = 0
KFR1 142102Z 06001KT 30/15 A3015 RMK A01 T03020152  RH  040%=      5-min Rain = 0
KFR1 142103Z 03002KT 30/15 A3015 RMK A01 T03040151  RH  040%=      5-min Rain = 0
KFR1 142104Z 29001KT 30/15 A3015 RMK A01 T03040151  RH  039%=      5-min Rain = 0
KFR1 142105Z 28003KT 31/15 A3015 RMK A01 T03050154  RH  040%=      5-min Rain = 0
KFR1 142106Z 28002KT 31/15 A3015 RMK A01 T03050154  RH  040%=      5-min Rain = 0
KFR1 142107Z 28002KT 31/15 A3015 RMK A01 T03060154  RH  040%=      5-min Rain = 0
KFR1 142108Z 26002KT 31/16 A3015 RMK A01 T03070155  RH  040%=      5-min Rain = 0
KFR1 142109Z 24004KT 31/16 A3015 RMK A01 T03080159  RH  041%=      5-min Rain = 0
KFR1 142110Z 21006KT 31/16 A3015 RMK A01 T03110158  RH  040%=      5-min Rain = 0
KFR1 142111Z 20007KT 31/16 A3015 RMK A01 T03080159  RH  040%=      5-min Rain = 0
KFR1 142112Z 20006KT 31/16 A3015 RMK A01 T03060157  RH  041%=      5-min Rain = 0
KFR1 142113Z 24004KT 30/16 A3015 RMK A01 T03030156  RH  041%=      5-min Rain = 0
KFR1 142114Z 24004KT 30/16 A3015 RMK A01 T03020156  RH  041%=      5-min Rain = 0
KFR1 142115Z 22003KT 30/16 A3015 RMK A01 T03020157  RH  041%=      5-min Rain = 0
KFR1 142116Z 20001KT 30/16 A3015 RMK A01 T03020155  RH  041%=      5-min Rain = 0
KFR1 142117Z 30000KT 30/16 A3015 RMK A01 T03020155  RH  041%=      5-min Rain = 0
KFR1 142118Z 01001KT 30/15 A3015 RMK A01 T03020153  RH  041%=      5-min Rain = 0
KFR1 142119Z 34002KT 30/15 A3014 RMK A01 T03030154  RH  040%=      5-min Rain = 0
KFR1 142120Z 35003KT 30/15 A3014 RMK A01 T03040151  RH  040%=      5-min Rain = 0
KFR1 142121Z 02003KT 30/15 A3014 RMK A01 T03040151  RH  039%=      5-min Rain = 0
KFR1 142122Z 01003KT 30/15 A3014 RMK A01 T03030152  RH  040%=      5-min Rain = 0
KFR1 142123Z 01003KT 30/16 A3014 RMK A01 T03030155  RH  041%=      5-min Rain = 0
KFR1 142124Z 02002KT 31/16 A3014 RMK A01 T03050155  RH  040%=      5-min Rain = 0
KFR1 142125Z 02003KT 31/16 A3014 RMK A01 T03080155  RH  040%=      5-min Rain = 0
KFR1 142126Z 04003KT 31/15 A3014 RMK A01 T03100152  RH  039%=      5-min Rain = 0
KFR1 142127Z 34002KT 31/15 A3014 RMK A01 T03100152  RH  038%=      5-min Rain = 0
KFR1 142128Z 31002KT 31/15 A3014 RMK A01 T03090154  RH  039%=      5-min Rain = 0
KFR1 142129Z 32004KT 31/16 A3014 RMK A01 T03100159  RH  040%=      5-min Rain = 0
KFR1 142130Z 33004KT 31/16 A3014 RMK A01 T03140159  RH  039%=      5-min Rain = 0
KFR1 142131Z 33004KT 32/16 A3014 RMK A01 T03150156  RH  038%=      5-min Rain = 0
KFR1 142132Z 33003KT 31/15 A3014 RMK A01 T03130154  RH  038%=      5-min Rain = 0
KFR1 142133Z 31005KT 31/15 A3014 RMK A01 T03110154  RH  039%=      5-min Rain = 0
KFR1 142134Z 27002KT 31/15 A3014 RMK A01 T03110153  RH  038%=      5-min Rain = 0
KFR1 142135Z 29002KT 31/15 A3014 RMK A01 T03120148  RH  037%=      5-min Rain = 0
KFR1 142136Z 28002KT 31/15 A3014 RMK A01 T03130149  RH  037%=      5-min Rain = 0
KFR1 142137Z 31003KT 32/15 A3014 RMK A01 T03150150  RH  037%=      5-min Rain = 0
KFR1 142138Z 33002KT 32/15 A3014 RMK A01 T03150151  RH  037%=      5-min Rain = 0
KFR1 142139Z 32004KT 31/15 A3014 RMK A01 T03130150  RH  037%=      5-min Rain = 0
KFR1 142140Z 31005KT 31/15 A3013 RMK A01 T03110152  RH  038%=      5-min Rain = 0
KFR1 142141Z 30004KT 31/15 A3013 RMK A01 T03110153  RH  038%=      5-min Rain = 0
KFR1 142142Z 29005KT 31/15 A3013 RMK A01 T03120152  RH  038%=      5-min Rain = 0
KFR1 142143Z 27004KT 31/15 A3013 RMK A01 T03130151  RH  038%=      5-min Rain = 0
KFR1 142144Z 24005KT 31/15 A3013 RMK A01 T03130151  RH  037%=      5-min Rain = 0
KFR1 142145Z 23006KT 32/15 A3013 RMK A01 T03150151  RH  037%=      5-min Rain = 0
KFR1 142146Z 23005KT 31/15 A3013 RMK A01 T03140149  RH  037%=      5-min Rain = 0
KFR1 142147Z 22004KT 31/15 A3013 RMK A01 T03140150  RH  037%=      5-min Rain = 0
KFR1 142148Z 22004KT 31/15 A3013 RMK A01 T03120153  RH  038%=      5-min Rain = 0
KFR1 142149Z 21006KT 32/15 A3013 RMK A01 T03150151  RH  037%=      5-min Rain = 0
KFR1 142150Z 23005KT 31/15 A3013 RMK A01 T03130148  RH  037%=      5-min Rain = 0
KFR1 142151Z 23004KT 31/15 A3013 RMK A01 T03110150  RH  038%=      5-min Rain = 0
KFR1 142152Z 24003KT 31/15 A3013 RMK A01 T03110148  RH  037%=      5-min Rain = 0
KFR1 142153Z 22003KT 31/15 A3013 RMK A01 T03120145  RH  036%=      5-min Rain = 0
KFR1 142154Z 21003KT 31/15 A3013 RMK A01 T03120147  RH  037%=      5-min Rain = 0
KFR1 142155Z 21002KT 31/15 A3013 RMK A01 T03110147  RH  037%=      5-min Rain = 0
KFR1 142156Z 34001KT 31/15 A3013 RMK A01 T03110145  RH  036%=      5-min Rain = 0
KFR1 142157Z 00000KT 31/15 A3013 RMK A01 T03110145  RH  036%=      5-min Rain = 0
KFR1 142158Z 33001KT 31/15 A3013 RMK A01 T03110145  RH  036%=      5-min Rain = 0
KFR1 142159Z 34001KT 31/15 A3013 RMK A01 T03120145  RH  036%=      5-min Rain = 0
KFR1 142200Z 35001KT 31/15 A3013 RMK A01 T03130147  RH  037%=      5-min Rain = 0
KFR1 142201Z 03001KT 31/15 A3013 RMK A01 T03130147  RH  036%=      5-min Rain = 0
KFR1 142202Z 04001KT 31/15 A3012 RMK A01 T03120147  RH  037%=      5-min Rain = 0
KFR1 142203Z 00001KT 31/15 A3012 RMK A01 T03120147  RH  037%=      5-min Rain = 0
KFR1 142204Z 06000KT 31/15 A3012 RMK A01 T03110147  RH  037%=      5-min Rain = 0
KFR1 142205Z 00003KT 31/15 A3012 RMK A01 T03120148  RH  037%=      5-min Rain = 0
KFR1 142206Z 00004KT 31/15 A3012 RMK A01 T03120150  RH  037%=      5-min Rain = 0
KFR1 142207Z 00002KT 31/15 A3012 RMK A01 T03110154  RH  039%=      5-min Rain = 0
KFR1 142208Z 36004KT 31/15 A3012 RMK A01 T03120154  RH  038%=      5-min Rain = 0
KFR1 142209Z 36004KT 31/15 A3012 RMK A01 T03130152  RH  038%=      5-min Rain = 0
KFR1 142210Z 03004KT 31/15 A3012 RMK A01 T03130153  RH  038%=      5-min Rain = 0
KFR1 142211Z 03004KT 32/15 A3012 RMK A01 T03150150  RH  037%=      5-min Rain = 0
KFR1 142212Z 04002KT 32/15 A3012 RMK A01 T03150149  RH  037%=      5-min Rain = 0
KFR1 142213Z 07002KT 32/15 A3012 RMK A01 T03150148  RH  036%=      5-min Rain = 0
KFR1 142214Z 10000KT 31/15 A3012 RMK A01 T03140148  RH  037%=      5-min Rain = 0
KFR1 142215Z 06001KT 31/15 A3012 RMK A01 T03140150  RH  037%=      5-min Rain = 0
KFR1 142216Z 22001KT 32/15 A3012 RMK A01 T03150148  RH  037%=      5-min Rain = 0
KFR1 142217Z 27002KT 32/15 A3012 RMK A01 T03150153  RH  037%=      5-min Rain = 0
KFR1 142218Z 26002KT 32/15 A3012 RMK A01 T03170151  RH  037%=      5-min Rain = 0
KFR1 142219Z 23002KT 32/15 A3012 RMK A01 T03170149  RH  036%=      5-min Rain = 0
KFR1 142220Z 20000KT 32/15 A3012 RMK A01 T03160149  RH  036%=      5-min Rain = 0
KFR1 142221Z 12000KT 32/15 A3012 RMK A01 T03170149  RH  036%=      5-min Rain = 0
KFR1 142222Z 06001KT 32/15 A3012 RMK A01 T03170150  RH  037%=      5-min Rain = 0
KFR1 142223Z 01002KT 32/15 A3011 RMK A01 T03160153  RH  037%=      5-min Rain = 0
KFR1 142224Z 35002KT 32/15 A3011 RMK A01 T03180153  RH  037%=      5-min Rain = 0
KFR1 142225Z 00004KT 32/15 A3011 RMK A01 T03190153  RH  037%=      5-min Rain = 0
KFR1 142226Z 36004KT 32/15 A3011 RMK A01 T03180151  RH  036%=      5-min Rain = 0
KFR1 142227Z 36002KT 32/15 A3011 RMK A01 T03160149  RH  036%=      5-min Rain = 0
KFR1 142228Z 02003KT 32/15 A3011 RMK A01 T03150148  RH  037%=      5-min Rain = 0
KFR1 142229Z 02003KT 31/15 A3011 RMK A01 T03140149  RH  037%=      5-min Rain = 0
KFR1 142230Z 01003KT 31/15 A3011 RMK A01 T03140148  RH  037%=      5-min Rain = 0
KFR1 142231Z 04003KT 31/15 A3011 RMK A01 T03130150  RH  037%=      5-min Rain = 0
KFR1 142232Z 03002KT 31/15 A3011 RMK A01 T03130149  RH  037%=      5-min Rain = 0
KFR1 142233Z 35003KT 31/15 A3011 RMK A01 T03140149  RH  037%=      5-min Rain = 0
KFR1 142234Z 31003KT 31/15 A3011 RMK A01 T03140151  RH  037%=      5-min Rain = 0
KFR1 142235Z 34002KT 31/15 A3011 RMK A01 T03140151  RH  037%=      5-min Rain = 0
KFR1 142236Z 35003KT 31/15 A3011 RMK A01 T03140150  RH  037%=      5-min Rain = 0
KFR1 142237Z 32003KT 32/15 A3011 RMK A01 T03150151  RH  037%=      5-min Rain = 0
KFR1 142238Z 32003KT 32/15 A3011 RMK A01 T03150151  RH  037%=      5-min Rain = 0
KFR1 142239Z 01003KT 32/15 A3011 RMK A01 T03170154  RH  037%=      5-min Rain = 0
KFR1 142240Z 02002KT 32/15 A3011 RMK A01 T03180152  RH  037%=      5-min Rain = 0
KFR1 142241Z 04004KT 32/15 A3011 RMK A01 T03180152  RH  037%=      5-min Rain = 0
KFR1 142242Z 04004KT 32/15 A3011 RMK A01 T03180151  RH  037%=      5-min Rain = 0
KFR1 142243Z 03003KT 32/15 A3011 RMK A01 T03170152  RH  037%=      5-min Rain = 0
KFR1 142244Z 05004KT 32/15 A3011 RMK A01 T03160150  RH  037%=      5-min Rain = 0
KFR1 142245Z 03005KT 32/15 A3011 RMK A01 T03150150  RH  037%=      5-min Rain = 0
KFR1 142246Z 03004KT 31/15 A3011 RMK A01 T03130148  RH  037%=      5-min Rain = 0
KFR1 142247Z 04003KT 31/15 A3011 RMK A01 T03120149  RH  037%=      5-min Rain = 0
KFR1 142248Z 04004KT 31/15 A3011 RMK A01 T03130154  RH  038%=      5-min Rain = 0
KFR1 142249Z 04004KT 32/15 A3011 RMK A01 T03150148  RH  036%=      5-min Rain = 0
KFR1 142250Z 04005KT 32/15 A3011 RMK A01 T03150153  RH  038%=      5-min Rain = 0
KFR1 142251Z 04003KT 32/15 A3011 RMK A01 T03170153  RH  037%=      5-min Rain = 0
KFR1 142252Z 05004KT 32/15 A3011 RMK A01 T03180146  RH  035%=      5-min Rain = 0
KFR1 142253Z 05004KT 32/14 A3011 RMK A01 T03170143  RH  035%=      5-min Rain = 0
KFR1 142254Z 07004KT 32/15 A3011 RMK A01 T03160145  RH  035%=      5-min Rain = 0
KFR1 142255Z 08003KT 32/14 A3011 RMK A01 T03160144  RH  035%=      5-min Rain = 0
KFR1 142256Z 07004KT 32/14 A3011 RMK A01 T03160144  RH  035%=      5-min Rain = 0
KFR1 142257Z 08004KT 32/14 A3011 RMK A01 T03160144  RH  035%=      5-min Rain = 0
KFR1 142258Z 11004KT 32/14 A3011 RMK A01 T03150144  RH  035%=      5-min Rain = 0
KFR1 142259Z 11003KT 32/14 A3011 RMK A01 T03150143  RH  035%=      5-min Rain = 0
KFR1 142300Z 12002KT 31/14 A3011 RMK A01 T03140141  RH  035%=      5-min Rain = 0
KFR1 142301Z 12002KT 31/14 A3011 RMK A01 T03140143  RH  035%=      5-min Rain = 0
KFR1 142302Z 13001KT 32/14 A3011 RMK A01 T03150141  RH  035%=      5-min Rain = 0
KFR1 142303Z 09001KT 32/14 A3011 RMK A01 T03160144  RH  035%=      5-min Rain = 0
KFR1 142304Z 04002KT 32/14 A3011 RMK A01 T03170144  RH  035%=      5-min Rain = 0
KFR1 142305Z 04004KT 32/14 A3011 RMK A01 T03180144  RH  035%=      5-min Rain = 0
KFR1 142306Z 03003KT 32/15 A3011 RMK A01 T03180146  RH  035%=      5-min Rain = 0
KFR1 142307Z 02002KT 32/14 A3011 RMK A01 T03190143  RH  034%=      5-min Rain = 0
KFR1 142308Z 01002KT 32/14 A3011 RMK A01 T03180143  RH  035%=      5-min Rain = 0
KFR1 142309Z 35002KT 32/14 A3011 RMK A01 T03180142  RH  034%=      5-min Rain = 0
KFR1 142310Z 01002KT 32/14 A3011 RMK A01 T03170144  RH  035%=      5-min Rain = 0
KFR1 142311Z 05003KT 32/15 A301 RMK A01 T03180147  RH  035%=      5-min Rain = 0
KFR1 142312Z 07004KT 32/14 A301 RMK A01 T03200143  RH  034%=      5-min Rain = 0
KFR1 142313Z 07003KT 32/14 A301 RMK A01 T03190140  RH  034%=      5-min Rain = 0
KFR1 142314Z 07003KT 32/14 A301 RMK A01 T03180141  RH  034%=      5-min Rain = 0
KFR1 142315Z 06005KT 32/14 A301 RMK A01 T03170142  RH  034%=      5-min Rain = 0
KFR1 142316Z 07004KT 32/14 A301 RMK A01 T03170142  RH  034%=      5-min Rain = 0
KFR1 142317Z 07004KT 32/14 A301 RMK A01 T03180140  RH  034%=      5-min Rain = 0
KFR1 142318Z 06004KT 32/14 A301 RMK A01 T03170138  RH  034%=      5-min Rain = 0
KFR1 142319Z 06004KT 32/14 A301 RMK A01 T03150136  RH  034%=      5-min Rain = 0
KFR1 142320Z 06003KT 31/14 A301 RMK A01 T03140138  RH  034%=      5-min Rain = 0
KFR1 142321Z 07003KT 31/14 A301 RMK A01 T03140137  RH  034%=      5-min Rain = 0
KFR1 142322Z 05002KT 31/14 A301 RMK A01 T03140137  RH  034%=      5-min Rain = 0
KFR1 142323Z 03002KT 31/14 A301 RMK A01 T03140138  RH  034%=      5-min Rain = 0
KFR1 142324Z 06001KT 31/14 A301 RMK A01 T03140138  RH  034%=      5-min Rain = 0
KFR1 142325Z 09003KT 32/14 A301 RMK A01 T03150140  RH  035%=      5-min Rain = 0
KFR1 142326Z 13002KT 32/14 A301 RMK A01 T03160141  RH  035%=      5-min Rain = 0
KFR1 142327Z 15003KT 32/14 A301 RMK A01 T03170140  RH  034%=      5-min Rain = 0
KFR1 142328Z 15004KT 32/14 A301 RMK A01 T03180137  RH  033%=      5-min Rain = 0
KFR1 142329Z 16009KT 32/14 A301 RMK A01 T03180139  RH  034%=      5-min Rain = 0
KFR1 142330Z 16006KT 32/14 A301 RMK A01 T03170138  RH  034%=      5-min Rain = 0
KFR1 142331Z 17005KT 32/14 A301 RMK A01 T03170141  RH  034%=      5-min Rain = 0
KFR1 142332Z 19005KT 32/14 A301 RMK A01 T03180138  RH  033%=      5-min Rain = 0
KFR1 142333Z 18004KT 32/14 A301 RMK A01 T03190138  RH  033%=      5-min Rain = 0
KFR1 142334Z 16005KT 32/14 A301 RMK A01 T03190141  RH  034%=      5-min Rain = 0
KFR1 142335Z 17004KT 32/14 A301 RMK A01 T03210137  RH  033%=      5-min Rain = 0
KFR1 142336Z 16003KT 32/14 A301 RMK A01 T03200137  RH  033%=      5-min Rain = 0
KFR1 142337Z 12005KT 32/14 A301 RMK A01 T03200137  RH  033%=      5-min Rain = 0
KFR1 142338Z 13006KT 32/14 A301 RMK A01 T03190137  RH  033%=      5-min Rain = 0
KFR1 142339Z 15005KT 32/14 A301 RMK A01 T03190137  RH  033%=      5-min Rain = 0
KFR1 142340Z 15004KT 32/14 A301 RMK A01 T03180139  RH  034%=      5-min Rain = 0
KFR1 142341Z 13004KT 32/14 A301 RMK A01 T03190138  RH  033%=      5-min Rain = 0
KFR1 142342Z 16006KT 32/14 A301 RMK A01 T03190138  RH  033%=      5-min Rain = 0
KFR1 142343Z 16005KT 32/14 A301 RMK A01 T03190139  RH  033%=      5-min Rain = 0
KFR1 142344Z 17006KT 32/14 A3009 RMK A01 T03200140  RH  034%=      5-min Rain = 0
KFR1 142345Z 18004KT 32/14 A3009 RMK A01 T03200137  RH  033%=      5-min Rain = 0
KFR1 142346Z 16005KT 32/14 A3009 RMK A01 T03190138  RH  033%=      5-min Rain = 0
KFR1 142347Z 16006KT 32/14 A3009 RMK A01 T03190140  RH  034%=      5-min Rain = 0
KFR1 142348Z 17005KT 32/14 A3009 RMK A01 T03190141  RH  034%=      5-min Rain = 0
KFR1 142349Z 17006KT 32/14 A3009 RMK A01 T03210142  RH  034%=      5-min Rain = 0
KFR1 142350Z 14004KT 32/14 A3009 RMK A01 T03220137  RH  033%=      5-min Rain = 0
KFR1 142351Z 15005KT 32/14 A3009 RMK A01 T03210135  RH  032%=      5-min Rain = 0
KFR1 142352Z 14005KT 32/14 A3009 RMK A01 T03200136  RH  033%=      5-min Rain = 0
KFR1 142353Z 12005KT 32/13 A3009 RMK A01 T03190133  RH  032%=      5-min Rain = 0
KFR1 142354Z 14004KT 32/13 A3009 RMK A01 T03180134  RH  033%=      5-min Rain = 0
KFR1 142355Z 13004KT 32/13 A3009 RMK A01 T03170134  RH  033%=      5-min Rain = 0
KFR1 142356Z 13004KT 32/13 A3009 RMK A01 T03170133  RH  033%=      5-min Rain = 0
KFR1 142357Z 13002KT 32/14 A3009 RMK A01 T03170135  RH  033%=      5-min Rain = 0
KFR1 142358Z 12005KT 32/14 A3009 RMK A01 T03180135  RH  033%=      5-min Rain = 0
KFR1 142359Z 13006KT 32/13 A3009 RMK A01 T03190134  RH  032%=      5-min Rain = 0
KFR1 150000Z 12007KT 32/13 A3009 RMK A01 T03180133  RH  032%=      5-min Rain = 0
KFR1 150001Z 13006KT 32/13 A3009 RMK A01 T03170132  RH  033%=      5-min Rain = 0
KFR1 150002Z 13004KT 32/13 A3009 RMK A01 T03150132  RH  033%=      5-min Rain = 0
KFR1 150003Z 13004KT 32/13 A3009 RMK A01 T03150132  RH  033%=      5-min Rain = 0
KFR1 150004Z 13004KT 32/13 A3009 RMK A01 T03150133  RH  033%=      5-min Rain = 0
KFR1 150005Z 12003KT 32/13 A3009 RMK A01 T03150133  RH  033%=      5-min Rain = 0
KFR1 150006Z 09002KT 32/13 A3009 RMK A01 T03150129  RH  032%=      5-min Rain = 0
KFR1 150007Z 12002KT 32/13 A3009 RMK A01 T03160132  RH  033%=      5-min Rain = 0
KFR1 150008Z 12002KT 32/14 A301 RMK A01 T03160135  RH  033%=      5-min Rain = 0
KFR1 150009Z 12003KT 32/13 A301 RMK A01 T03180134  RH  033%=      5-min Rain = 0
KFR1 150010Z 18004KT 32/13 A301 RMK A01 T03190133  RH  032%=      5-min Rain = 0
KFR1 150011Z 16004KT 32/14 A301 RMK A01 T03200137  RH  033%=      5-min Rain = 0
KFR1 150012Z 15004KT 32/14 A301 RMK A01 T03210135  RH  032%=      5-min Rain = 0
KFR1 150013Z 16004KT 32/13 A301 RMK A01 T03220131  RH  031%=      5-min Rain = 0
KFR1 150014Z 16005KT 32/13 A301 RMK A01 T03210133  RH  032%=      5-min Rain = 0
KFR1 150015Z 15005KT 32/13 A301 RMK A01 T03200131  RH  032%=      5-min Rain = 0
KFR1 150016Z 15004KT 32/13 A301 RMK A01 T03200132  RH  032%=      5-min Rain = 0
KFR1 150017Z 16004KT 32/13 A3009 RMK A01 T03200131  RH  032%=      5-min Rain = 0
KFR1 150018Z 17004KT 32/13 A3009 RMK A01 T03200133  RH  032%=      5-min Rain = 0
KFR1 150019Z 16006KT 32/14 A3009 RMK A01 T03200135  RH  033%=      5-min Rain = 0
KFR1 150020Z 16006KT 32/13 A3009 RMK A01 T03200133  RH  032%=      5-min Rain = 0
KFR1 150021Z 15004KT 32/13 A3009 RMK A01 T03200132  RH  032%=      5-min Rain = 0
KFR1 150022Z 17004KT 32/13 A3009 RMK A01 T03190131  RH  032%=      5-min Rain = 0
KFR1 150023Z 15003KT 32/14 A3009 RMK A01 T03190135  RH  033%=      5-min Rain = 0
KFR1 150024Z 15004KT 32/14 A3009 RMK A01 T03190137  RH  033%=      5-min Rain = 0
KFR1 150025Z 13003KT 32/13 A301 RMK A01 T03190133  RH  032%=      5-min Rain = 0
KFR1 150026Z 12003KT 32/13 A301 RMK A01 T03180131  RH  032%=      5-min Rain = 0
KFR1 150027Z 13002KT 32/13 A301 RMK A01 T03170131  RH  032%=      5-min Rain = 0
KFR1 150028Z 13004KT 32/13 A301 RMK A01 T03160132  RH  033%=      5-min Rain = 0
KFR1 150029Z 13004KT 32/13 A301 RMK A01 T03160131  RH  032%=      5-min Rain = 0
KFR1 150030Z 15004KT 32/13 A301 RMK A01 T03170131  RH  032%=      5-min Rain = 0
KFR1 150031Z 15005KT 32/13 A301 RMK A01 T03160132  RH  033%=      5-min Rain = 0
KFR1 150032Z 15004KT 32/13 A301 RMK A01 T03160131  RH  032%=      5-min Rain = 0
KFR1 150033Z 16004KT 32/13 A3009 RMK A01 T03160133  RH  033%=      5-min Rain = 0
KFR1 150034Z 16004KT 32/13 A3009 RMK A01 T03160133  RH  033%=      5-min Rain = 0
KFR1 150035Z 15004KT 32/13 A3009 RMK A01 T03160132  RH  033%=      5-min Rain = 0
KFR1 150036Z 15004KT 32/13 A3009 RMK A01 T03160133  RH  033%=      5-min Rain = 0
KFR1 150037Z 15004KT 32/13 A3009 RMK A01 T03160134  RH  033%=      5-min Rain = 0
KFR1 150038Z 15005KT 32/14 A3009 RMK A01 T03160135  RH  033%=      5-min Rain = 0
KFR1 150039Z 15004KT 32/13 A3009 RMK A01 T03160134  RH  033%=      5-min Rain = 0
KFR1 150040Z 16004KT 32/13 A3009 RMK A01 T03160132  RH  033%=      5-min Rain = 0
KFR1 150041Z 15005KT 32/13 A301 RMK A01 T03160133  RH  033%=      5-min Rain = 0
KFR1 150042Z 14003KT 32/13 A301 RMK A01 T03160134  RH  033%=      5-min Rain = 0
KFR1 150043Z 14003KT 32/13 A301 RMK A01 T03150132  RH  033%=      5-min Rain = 0
KFR1 150044Z 15003KT 32/13 A301 RMK A01 T03150133  RH  033%=      5-min Rain = 0
KFR1 150045Z 17004KT 32/13 A301 RMK A01 T03150134  RH  033%=      5-min Rain = 0
KFR1 150046Z 17004KT 32/14 A3009 RMK A01 T03150136  RH  034%=      5-min Rain = 0
KFR1 150047Z 17004KT 32/14 A3009 RMK A01 T03150137  RH  034%=      5-min Rain = 0
KFR1 150048Z 17005KT 32/14 A3009 RMK A01 T03150135  RH  034%=      5-min Rain = 0
KFR1 150049Z 17004KT 31/14 A3009 RMK A01 T03140137  RH  034%=      5-min Rain = 0
KFR1 150050Z 18005KT 31/14 A3009 RMK A01 T03140138  RH  034%=      5-min Rain = 0
KFR1 150051Z 17005KT 31/14 A3009 RMK A01 T03130136  RH  034%=      5-min Rain = 0
KFR1 150052Z 16003KT 31/14 A3009 RMK A01 T03120138  RH  035%=      5-min Rain = 0
KFR1 150053Z 15003KT 31/14 A301 RMK A01 T03120140  RH  035%=      5-min Rain = 0
KFR1 150054Z 15003KT 31/14 A301 RMK A01 T03110140  RH  035%=      5-min Rain = 0
KFR1 150055Z 15004KT 31/14 A3009 RMK A01 T03110138  RH  035%=      5-min Rain = 0
KFR1 150056Z 15004KT 31/14 A3009 RMK A01 T03100136  RH  035%=      5-min Rain = 0
KFR1 150057Z 15003KT 31/14 A3009 RMK A01 T03100137  RH  035%=      5-min Rain = 0
KFR1 150058Z 15005KT 31/14 A3009 RMK A01 T03090136  RH  035%=      5-min Rain = 0
KFR1 150059Z 16004KT 31/14 A3009 RMK A01 T03080136  RH  035%=      5-min Rain = 0
KFR1 150100Z 14003KT 31/14 A3009 RMK A01 T03080137  RH  035%=      5-min Rain = 0
KFR1 150101Z 13003KT 31/14 A301 RMK A01 T03070138  RH  036%=      5-min Rain = 0
KFR1 150102Z 13003KT 31/14 A301 RMK A01 T03070138  RH  036%=      5-min Rain = 0
KFR1 150103Z 14003KT 31/14 A301 RMK A01 T03060136  RH  035%=      5-min Rain = 0
KFR1 150104Z 14003KT 31/14 A301 RMK A01 T03060136  RH  035%=      5-min Rain = 0
KFR1 150105Z 14004KT 31/14 A301 RMK A01 T03060136  RH  036%=      5-min Rain = 0
KFR1 150106Z 14004KT 31/14 A301 RMK A01 T03060137  RH  036%=      5-min Rain = 0
KFR1 150107Z 13003KT 31/14 A301 RMK A01 T03060138  RH  036%=      5-min Rain = 0
KFR1 150108Z 14003KT 31/14 A301 RMK A01 T03050138  RH  036%=      5-min Rain = 0
KFR1 150109Z 14003KT 31/14 A301 RMK A01 T03050139  RH  036%=      5-min Rain = 0
KFR1 150110Z 14003KT 31/14 A301 RMK A01 T03050139  RH  036%=      5-min Rain = 0
KFR1 150111Z 14004KT 30/14 A301 RMK A01 T03040141  RH  037%=      5-min Rain = 0
KFR1 150112Z 14004KT 30/14 A301 RMK A01 T03030140  RH  037%=      5-min Rain = 0
KFR1 150113Z 15004KT 30/14 A301 RMK A01 T03030141  RH  037%=      5-min Rain = 0
KFR1 150114Z 15004KT 30/14 A301 RMK A01 T03020141  RH  037%=      5-min Rain = 0
KFR1 150115Z 14004KT 30/14 A301 RMK A01 T03020141  RH  038%=      5-min Rain = 0
KFR1 150116Z 15004KT 30/14 A301 RMK A01 T03010142  RH  038%=      5-min Rain = 0
KFR1 150117Z 15004KT 30/14 A301 RMK A01 T03000142  RH  038%=      5-min Rain = 0
KFR1 150118Z 15005KT 30/14 A301 RMK A01 T02990144  RH  039%=      5-min Rain = 0
KFR1 150119Z 16005KT 30/14 A301 RMK A01 T02980144  RH  039%=      5-min Rain = 0
KFR1 150120Z 16006KT 30/15 A301 RMK A01 T02970145  RH  040%=      5-min Rain = 0
KFR1 150121Z 16006KT 30/15 A301 RMK A01 T02960146  RH  040%=      5-min Rain = 0
KFR1 150122Z 16006KT 30/15 A301 RMK A01 T02950147  RH  040%=      5-min Rain = 0
KFR1 150123Z 16006KT 29/15 A301 RMK A01 T02940147  RH  041%=      5-min Rain = 0
KFR1 150124Z 16006KT 29/15 A301 RMK A01 T02940148  RH  041%=      5-min Rain = 0
KFR1 150125Z 16006KT 29/15 A301 RMK A01 T02930149  RH  041%=      5-min Rain = 0
KFR1 150126Z 15005KT 29/15 A301 RMK A01 T02920150  RH  042%=      5-min Rain = 0
KFR1 150127Z 15006KT 29/15 A301 RMK A01 T02920151  RH  042%=      5-min Rain = 0
KFR1 150128Z 15006KT 29/15 A301 RMK A01 T02910153  RH  043%=      5-min Rain = 0
KFR1 150129Z 16007KT 29/15 A301 RMK A01 T02900154  RH  043%=      5-min Rain = 0
KFR1 150130Z 16007KT 29/15 A301 RMK A01 T02890153  RH  043%=      5-min Rain = 0
KFR1 150131Z 17007KT 29/15 A301 RMK A01 T02890152  RH  043%=      5-min Rain = 0
KFR1 150132Z 17007KT 29/15 A301 RMK A01 T02890152  RH  043%=      5-min Rain = 0
KFR1 150133Z 17007KT 29/15 A301 RMK A01 T02880152  RH  043%=      5-min Rain = 0
KFR1 150134Z 16009KT 29/15 A301 RMK A01 T02880152  RH  044%=      5-min Rain = 0
KFR1 150135Z 17007KT 29/15 A301 RMK A01 T02870150  RH  043%=      5-min Rain = 0
KFR1 150136Z 17008KT 29/15 A301 RMK A01 T02870151  RH  043%=      5-min Rain = 0
KFR1 150137Z 17007KT 29/15 A301 RMK A01 T02870151  RH  043%=      5-min Rain = 0
KFR1 150138Z 16007KT 29/15 A3011 RMK A01 T02870149  RH  043%=      5-min Rain = 0
KFR1 150139Z 17007KT 29/15 A3011 RMK A01 T02870149  RH  043%=      5-min Rain = 0
KFR1 150140Z 16007KT 29/15 A3011 RMK A01 T02870150  RH  043%=      5-min Rain = 0
KFR1 150141Z 16008KT 29/15 A3011 RMK A01 T02860149  RH  043%=      5-min Rain = 0
KFR1 150142Z 16008KT 29/15 A3011 RMK A01 T02850149  RH  043%=      5-min Rain = 0
KFR1 150143Z 17006KT 29/15 A3011 RMK A01 T02850149  RH  044%=      5-min Rain = 0
KFR1 150144Z 17007KT 28/15 A3011 RMK A01 T02840149  RH  044%=      5-min Rain = 0
KFR1 150145Z 17007KT 28/15 A3011 RMK A01 T02830148  RH  044%=      5-min Rain = 0
KFR1 150146Z 17008KT 28/15 A3011 RMK A01 T02830148  RH  044%=      5-min Rain = 0
KFR1 150147Z 16008KT 28/15 A3011 RMK A01 T02830148  RH  044%=      5-min Rain = 0
KFR1 150148Z 17008KT 28/15 A3011 RMK A01 T02820147  RH  044%=      5-min Rain = 0
KFR1 150149Z 16009KT 28/15 A3011 RMK A01 T02820148  RH  044%=      5-min Rain = 0
KFR1 150150Z 16009KT 28/15 A3011 RMK A01 T02810147  RH  044%=      5-min Rain = 0
KFR1 150151Z 16008KT 28/15 A3011 RMK A01 T02810146  RH  044%=      5-min Rain = 0
KFR1 150152Z 16009KT 28/15 A3011 RMK A01 T02810146  RH  043%=      5-min Rain = 0
KFR1 150153Z 16009KT 28/15 A3011 RMK A01 T02810145  RH  043%=      5-min Rain = 0
KFR1 150154Z 16009KT 28/15 A3011 RMK A01 T02820145  RH  043%=      5-min Rain = 0
KFR1 150155Z 17007KT 28/15 A3011 RMK A01 T02820146  RH  043%=      5-min Rain = 0
KFR1 150156Z 17009KT 28/15 A3011 RMK A01 T02800145  RH  044%=      5-min Rain = 0
KFR1 150157Z 16009KT 28/15 A3011 RMK A01 T02800145  RH  044%=      5-min Rain = 0
KFR1 150158Z 16009KT 28/15 A3011 RMK A01 T02790145  RH  044%=      5-min Rain = 0
KFR1 150159Z 17008KT 28/15 A3011 RMK A01 T02790145  RH  044%=      5-min Rain = 0
KFR1 150200Z 17009KT 28/15 A3011 RMK A01 T02790145  RH  044%=      5-min Rain = 0
KFR1 150201Z 16008KT 28/14 A3011 RMK A01 T02790144  RH  044%=      5-min Rain = 0
KFR1 150202Z 16008KT 28/14 A3011 RMK A01 T02790144  RH  044%=      5-min Rain = 0
KFR1 150203Z 16009KT 28/14 A3011 RMK A01 T02780144  RH  044%=      5-min Rain = 0
KFR1 150204Z 16009KT 28/14 A3011 RMK A01 T02780144  RH  044%=      5-min Rain = 0
KFR1 150205Z 16009KT 28/14 A3011 RMK A01 T02780144  RH  044%=      5-min Rain = 0
KFR1 150206Z 16010KT 28/14 A3011 RMK A01 T02780142  RH  043%=      5-min Rain = 0
KFR1 150207Z 16009KT 28/14 A3011 RMK A01 T02790142  RH  043%=      5-min Rain = 0
KFR1 150208Z 17009KT 28/14 A3012 RMK A01 T02790142  RH  043%=      5-min Rain = 0
KFR1 150209Z 16009KT 28/14 A3012 RMK A01 T02790142  RH  043%=      5-min Rain = 0
KFR1 150210Z 16009KT 28/14 A3012 RMK A01 T02790142  RH  043%=      5-min Rain = 0
KFR1 150211Z 16009KT 28/14 A3012 RMK A01 T02790141  RH  043%=      5-min Rain = 0
KFR1 150212Z 17008KT 28/14 A3012 RMK A01 T02790142  RH  043%=      5-min Rain = 0
KFR1 150213Z 16008KT 28/14 A3012 RMK A01 T02790142  RH  043%=      5-min Rain = 0
KFR1 150214Z 16009KT 28/14 A3012 RMK A01 T02790143  RH  043%=      5-min Rain = 0
KFR1 150215Z 16009KT 28/14 A3012 RMK A01 T02780142  RH  043%=      5-min Rain = 0
KFR1 150216Z 16009KT 28/14 A3012 RMK A01 T02780142  RH  043%=      5-min Rain = 0
KFR1 150217Z 16008KT 28/14 A3012 RMK A01 T02780142  RH  043%=      5-min Rain = 0
KFR1 150218Z 16008KT 28/14 A3012 RMK A01 T02780142  RH  044%=      5-min Rain = 0
KFR1 150219Z 17008KT 28/14 A3012 RMK A01 T02770142  RH  044%=      5-min Rain = 0
KFR1 150220Z 16009KT 28/14 A3012 RMK A01 T02770142  RH  043%=      5-min Rain = 0
KFR1 150221Z 16008KT 28/14 A3012 RMK A01 T02770142  RH  043%=      5-min Rain = 0
KFR1 150222Z 17009KT 28/14 A3012 RMK A01 T02770141  RH  043%=      5-min Rain = 0
KFR1 150223Z 16009KT 28/14 A3012 RMK A01 T02770141  RH  043%=      5-min Rain = 0
KFR1 150224Z 16009KT 28/14 A3012 RMK A01 T02770140  RH  043%=      5-min Rain = 0
KFR1 150225Z 16009KT 28/14 A3012 RMK A01 T02770139  RH  043%=      5-min Rain = 0
KFR1 150226Z 16008KT 28/14 A3012 RMK A01 T02780140  RH  043%=      5-min Rain = 0
KFR1 150227Z 16009KT 28/14 A3012 RMK A01 T02780139  RH  043%=      5-min Rain = 0
KFR1 150228Z 16009KT 28/14 A3012 RMK A01 T02780139  RH  042%=      5-min Rain = 0
KFR1 150229Z 16009KT 28/14 A3012 RMK A01 T02780138  RH  042%=      5-min Rain = 0
KFR1 150230Z 15007KT 28/14 A3012 RMK A01 T02780139  RH  042%=      5-min Rain = 0
KFR1 150231Z 16008KT 28/14 A3012 RMK A01 T02780139  RH  042%=      5-min Rain = 0
KFR1 150232Z 16008KT 28/14 A3012 RMK A01 T02780139  RH  043%=      5-min Rain = 0
KFR1 150233Z 16008KT 28/14 A3012 RMK A01 T02780139  RH  043%=      5-min Rain = 0
KFR1 150234Z 16008KT 28/14 A3012 RMK A01 T02770139  RH  043%=      5-min Rain = 0
KFR1 150235Z 16008KT 28/14 A3012 RMK A01 T02770139  RH  043%=      5-min Rain = 0
KFR1 150236Z 16007KT 28/14 A3012 RMK A01 T02760139  RH  043%=      5-min Rain = 0
KFR1 150237Z 15008KT 28/14 A3012 RMK A01 T02760139  RH  043%=      5-min Rain = 0
KFR1 150238Z 15008KT 28/14 A3012 RMK A01 T02760139  RH  043%=      5-min Rain = 0
KFR1 150239Z 16009KT 28/14 A3012 RMK A01 T02760139  RH  043%=      5-min Rain = 0
KFR1 150240Z 16009KT 28/14 A3012 RMK A01 T02760138  RH  043%=      5-min Rain = 0
KFR1 150241Z 16009KT 28/14 A3012 RMK A01 T02760138  RH  043%=      5-min Rain = 0
KFR1 150242Z 16009KT 28/14 A3012 RMK A01 T02760139  RH  043%=      5-min Rain = 0
KFR1 150243Z 16010KT 28/14 A3012 RMK A01 T02760139  RH  043%=      5-min Rain = 0
KFR1 150244Z 16008KT 28/14 A3012 RMK A01 T02760139  RH  043%=      5-min Rain = 0
KFR1 150245Z 16009KT 28/14 A3012 RMK A01 T02760140  RH  043%=      5-min Rain = 0
KFR1 150246Z 16009KT 28/14 A3012 RMK A01 T02760139  RH  043%=      5-min Rain = 0
KFR1 150247Z 16009KT 28/14 A3012 RMK A01 T02760140  RH  043%=      5-min Rain = 0
KFR1 150248Z 15009KT 28/14 A3012 RMK A01 T02760140  RH  043%=      5-min Rain = 0
KFR1 150249Z 15008KT 28/14 A3013 RMK A01 T02750139  RH  043%=      5-min Rain = 0
KFR1 150250Z 16009KT 28/14 A3013 RMK A01 T02750140  RH  043%=      5-min Rain = 0
KFR1 150251Z 16009KT 28/14 A3013 RMK A01 T02760139  RH  043%=      5-min Rain = 0
KFR1 150252Z 15009KT 28/14 A3013 RMK A01 T02750139  RH  043%=      5-min Rain = 0
KFR1 150253Z 16008KT 28/14 A3013 RMK A01 T02760140  RH  043%=      5-min Rain = 0
KFR1 150254Z 15009KT 28/14 A3013 RMK A01 T02750139  RH  043%=      5-min Rain = 0
KFR1 150255Z 15008KT 28/14 A3013 RMK A01 T02750140  RH  043%=      5-min Rain = 0
KFR1 150256Z 16008KT 28/14 A3013 RMK A01 T02750139  RH  043%=      5-min Rain = 0
KFR1 150257Z 16008KT 28/14 A3013 RMK A01 T02750140  RH  044%=      5-min Rain = 0
KFR1 150258Z 15008KT 27/14 A3013 RMK A01 T02740140  RH  044%=      5-min Rain = 0
KFR1 150259Z 16009KT 27/14 A3013 RMK A01 T02740139  RH  044%=      5-min Rain = 0
KFR1 150300Z 15009KT 27/14 A3013 RMK A01 T02740139  RH  044%=      5-min Rain = 0
KFR1 150301Z 16007KT 27/14 A3013 RMK A01 T02740139  RH  044%=      5-min Rain = 0
KFR1 150302Z 15008KT 27/14 A3013 RMK A01 T02740140  RH  044%=      5-min Rain = 0
KFR1 150303Z 15009KT 27/14 A3013 RMK A01 T02730140  RH  044%=      5-min Rain = 0
KFR1 150304Z 16008KT 27/14 A3013 RMK A01 T02730139  RH  044%=      5-min Rain = 0
KFR1 150305Z 16008KT 27/14 A3013 RMK A01 T02730139  RH  044%=      5-min Rain = 0
KFR1 150306Z 15009KT 27/14 A3013 RMK A01 T02730139  RH  044%=      5-min Rain = 0
KFR1 150307Z 16007KT 27/14 A3013 RMK A01 T02730140  RH  044%=      5-min Rain = 0
KFR1 150308Z 16008KT 27/14 A3014 RMK A01 T02730140  RH  044%=      5-min Rain = 0
KFR1 150309Z 15007KT 27/14 A3014 RMK A01 T02730140  RH  044%=      5-min Rain = 0
KFR1 150310Z 15006KT 27/14 A3014 RMK A01 T02720140  RH  044%=      5-min Rain = 0
KFR1 150311Z 15007KT 27/14 A3014 RMK A01 T02720140  RH  044%=      5-min Rain = 0
KFR1 150312Z 15008KT 27/14 A3014 RMK A01 T02720140  RH  044%=      5-min Rain = 0
KFR1 150313Z 15006KT 27/14 A3014 RMK A01 T02720141  RH  045%=      5-min Rain = 0
KFR1 150314Z 15007KT 27/14 A3014 RMK A01 T02710141  RH  045%=      5-min Rain = 0
KFR1 150315Z 15008KT 27/14 A3014 RMK A01 T02700141  RH  045%=      5-min Rain = 0
KFR1 150316Z 15008KT 27/14 A3014 RMK A01 T02700141  RH  045%=      5-min Rain = 0
KFR1 150317Z 15007KT 27/14 A3014 RMK A01 T02700141  RH  045%=      5-min Rain = 0
KFR1 150318Z 16007KT 27/14 A3014 RMK A01 T02690141  RH  045%=      5-min Rain = 0
KFR1 150319Z 15006KT 27/14 A3014 RMK A01 T02690142  RH  046%=      5-min Rain = 0
KFR1 150320Z 15008KT 27/14 A3014 RMK A01 T02690143  RH  046%=      5-min Rain = 0
KFR1 150321Z 14007KT 27/14 A3014 RMK A01 T02680142  RH  046%=      5-min Rain = 0
KFR1 150322Z 16006KT 27/14 A3014 RMK A01 T02680142  RH  046%=      5-min Rain = 0
KFR1 150323Z 15008KT 27/14 A3014 RMK A01 T02670143  RH  046%=      5-min Rain = 0
KFR1 150324Z 15007KT 27/14 A3014 RMK A01 T02670143  RH  046%=      5-min Rain = 0
KFR1 150325Z 15008KT 27/14 A3014 RMK A01 T02670143  RH  046%=      5-min Rain = 0
KFR1 150326Z 15008KT 27/14 A3014 RMK A01 T02670143  RH  046%=      5-min Rain = 0
KFR1 150327Z 15007KT 27/14 A3014 RMK A01 T02670143  RH  047%=      5-min Rain = 0
KFR1 150328Z 16007KT 27/14 A3014 RMK A01 T02670143  RH  047%=      5-min Rain = 0
KFR1 150329Z 15007KT 27/14 A3014 RMK A01 T02670144  RH  047%=      5-min Rain = 0
KFR1 150330Z 15007KT 27/14 A3015 RMK A01 T02670144  RH  047%=      5-min Rain = 0
KFR1 150331Z 15006KT 27/14 A3015 RMK A01 T02670144  RH  047%=      5-min Rain = 0
KFR1 150332Z 15007KT 27/14 A3015 RMK A01 T02660144  RH  047%=      5-min Rain = 0
KFR1 150333Z 15007KT 27/15 A3015 RMK A01 T02650145  RH  047%=      5-min Rain = 0
KFR1 150334Z 15007KT 27/15 A3015 RMK A01 T02650145  RH  048%=      5-min Rain = 0
KFR1 150335Z 16007KT 26/15 A3015 RMK A01 T02640145  RH  048%=      5-min Rain = 0
KFR1 150336Z 15006G11KT 26/15 A3015 RMK A01 T02640145  RH  048%=      5-min Rain = 0
KFR1 150337Z 15007KT 26/15 A3015 RMK A01 T02640145  RH  048%=      5-min Rain = 0
KFR1 150338Z 16007KT 26/15 A3015 RMK A01 T02640145  RH  048%=      5-min Rain = 0
KFR1 150339Z 15007KT 26/15 A3015 RMK A01 T02640146  RH  048%=      5-min Rain = 0
KFR1 150340Z 15007KT 26/15 A3015 RMK A01 T02640146  RH  048%=      5-min Rain = 0
KFR1 150341Z 15007KT 26/15 A3015 RMK A01 T02630146  RH  049%=      5-min Rain = 0
KFR1 150342Z 15009KT 26/15 A3015 RMK A01 T02630146  RH  049%=      5-min Rain = 0
KFR1 150343Z 16007KT 26/15 A3015 RMK A01 T02630146  RH  049%=      5-min Rain = 0
KFR1 150344Z 16008KT 26/15 A3015 RMK A01 T02630146  RH  049%=      5-min Rain = 0
KFR1 150345Z 16009KT 26/15 A3016 RMK A01 T02630146  RH  049%=      5-min Rain = 0
KFR1 150346Z 16009KT 26/15 A3016 RMK A01 T02630146  RH  049%=      5-min Rain = 0
KFR1 150347Z 16009KT 26/15 A3016 RMK A01 T02620146  RH  049%=      5-min Rain = 0
KFR1 150348Z 16009KT 26/15 A3016 RMK A01 T02620147  RH  049%=      5-min Rain = 0
KFR1 150349Z 16010KT 26/15 A3016 RMK A01 T02620147  RH  049%=      5-min Rain = 0
KFR1 150350Z 16009KT 26/15 A3016 RMK A01 T02620147  RH  049%=      5-min Rain = 0
KFR1 150351Z 16007KT 26/15 A3016 RMK A01 T02620147  RH  049%=      5-min Rain = 0
KFR1 150352Z 15007KT 26/15 A3016 RMK A01 T02620147  RH  049%=      5-min Rain = 0
KFR1 150353Z 15009KT 26/15 A3016 RMK A01 T02610147  RH  049%=      5-min Rain = 0
KFR1 150354Z 16008KT 26/15 A3016 RMK A01 T02620147  RH  049%=      5-min Rain = 0
KFR1 150355Z 16009KT 26/15 A3016 RMK A01 T02610147  RH  049%=      5-min Rain = 0
KFR1 150356Z 15008KT 26/15 A3016 RMK A01 T02610147  RH  049%=      5-min Rain = 0
KFR1 150357Z 16008KT 26/15 A3016 RMK A01 T02610147  RH  049%=      5-min Rain = 0
KFR1 150358Z 15007KT 26/15 A3016 RMK A01 T02620148  RH  049%=      5-min Rain = 0
KFR1 150359Z 16008KT 26/15 A3016 RMK A01 T02610148  RH  050%=      5-min Rain = 0
KFR1 150400Z 16008KT 26/15 A3016 RMK A01 T02610148  RH  050%=      5-min Rain = 0
KFR1 150401Z 16010KT 26/15 A3016 RMK A01 T02610148  RH  050%=      5-min Rain = 0
KFR1 150402Z 16008KT 26/15 A3016 RMK A01 T02610148  RH  050%=      5-min Rain = 0
KFR1 150403Z 16009KT 26/15 A3016 RMK A01 T02600148  RH  050%=      5-min Rain = 0
KFR1 150404Z 16009KT 26/15 A3016 RMK A01 T02600148  RH  050%=      5-min Rain = 0
KFR1 150405Z 16009KT 26/15 A3016 RMK A01 T02610148  RH  050%=      5-min Rain = 0
KFR1 150406Z 16010KT 26/15 A3016 RMK A01 T02610148  RH  050%=      5-min Rain = 0
KFR1 150407Z 15010KT 26/15 A3016 RMK A01 T02610148  RH  050%=      5-min Rain = 0
KFR1 150408Z 15010KT 26/15 A3016 RMK A01 T02610148  RH  050%=      5-min Rain = 0
KFR1 150409Z 16009KT 26/15 A3016 RMK A01 T02620148  RH  050%=      5-min Rain = 0
KFR1 150410Z 15009KT 26/15 A3016 RMK A01 T02620148  RH  050%=      5-min Rain = 0
KFR1 150411Z 15008KT 26/15 A3016 RMK A01 T02620148  RH  049%=      5-min Rain = 0
KFR1 150412Z 16009KT 26/15 A3016 RMK A01 T02620148  RH  050%=      5-min Rain = 0
KFR1 150413Z 16009KT 26/15 A3016 RMK A01 T02620148  RH  050%=      5-min Rain = 0
KFR1 150414Z 15009KT 26/15 A3016 RMK A01 T02620149  RH  050%=      5-min Rain = 0
KFR1 150415Z 15010KT 26/15 A3016 RMK A01 T02620149  RH  050%=      5-min Rain = 0
KFR1 150416Z 16011KT 26/15 A3016 RMK A01 T02620149  RH  050%=      5-min Rain = 0
KFR1 150417Z 16008KT 26/15 A3016 RMK A01 T02630149  RH  050%=      5-min Rain = 0
KFR1 150418Z 16010KT 26/15 A3016 RMK A01 T02630150  RH  050%=      5-min Rain = 0
KFR1 150419Z 15009KT 26/15 A3016 RMK A01 T02630149  RH  050%=      5-min Rain = 0
KFR1 150420Z 16009KT 26/15 A3016 RMK A01 T02630149  RH  049%=      5-min Rain = 0
KFR1 150421Z 15009G14KT 26/15 A3016 RMK A01 T02640150  RH  050%=      5-min Rain = 0
KFR1 150422Z 15011KT 26/15 A3016 RMK A01 T02640150  RH  050%=      5-min Rain = 0
KFR1 150423Z 16009KT 26/15 A3016 RMK A01 T02640150  RH  050%=      5-min Rain = 0
KFR1 150424Z 16008KT 26/15 A3016 RMK A01 T02640150  RH  050%=      5-min Rain = 0
KFR1 150425Z 15010KT 26/15 A3016 RMK A01 T02640151  RH  050%=      5-min Rain = 0
KFR1 150426Z 16008KT 26/15 A3016 RMK A01 T02640151  RH  050%=      5-min Rain = 0
KFR1 150427Z 16010KT 26/15 A3017 RMK A01 T02640151  RH  050%=      5-min Rain = 0
KFR1 150428Z 16011KT 26/15 A3016 RMK A01 T02640151  RH  050%=      5-min Rain = 0
KFR1 150429Z 16011KT 26/15 A3016 RMK A01 T02640151  RH  050%=      5-min Rain = 0
KFR1 150430Z 16011G16KT 26/15 A3016 RMK A01 T02640151  RH  050%=      5-min Rain = 0
KFR1 150431Z 15010KT 26/15 A3016 RMK A01 T02640151  RH  050%=      5-min Rain = 0
KFR1 150432Z 16011KT 26/15 A3016 RMK A01 T02640151  RH  050%=      5-min Rain = 0
KFR1 150433Z 16010KT 26/15 A3016 RMK A01 T02640151  RH  050%=      5-min Rain = 0
KFR1 150434Z 15009KT 26/15 A3016 RMK A01 T02640152  RH  050%=      5-min Rain = 0
KFR1 150435Z 16010KT 26/15 A3016 RMK A01 T02630151  RH  050%=      5-min Rain = 0
KFR1 150436Z 16012KT 26/15 A3016 RMK A01 T02640152  RH  050%=      5-min Rain = 0
KFR1 150437Z 16010KT 26/15 A3016 RMK A01 T02630152  RH  050%=      5-min Rain = 0
KFR1 150438Z 15009KT 26/15 A3016 RMK A01 T02630152  RH  050%=      5-min Rain = 0
KFR1 150439Z 16011G16KT 26/15 A3016 RMK A01 T02630152  RH  051%=      5-min Rain = 0
KFR1 150440Z 15011KT 26/15 A3016 RMK A01 T02630152  RH  051%=      5-min Rain = 0
KFR1 150441Z 16010KT 26/15 A3016 RMK A01 T02620152  RH  051%=      5-min Rain = 0
KFR1 150442Z 15009KT 26/15 A3016 RMK A01 T02620153  RH  051%=      5-min Rain = 0
KFR1 150443Z 16011KT 26/15 A3016 RMK A01 T02620153  RH  051%=      5-min Rain = 0
KFR1 150444Z 15010KT 26/15 A3016 RMK A01 T02610152  RH  051%=      5-min Rain = 0
KFR1 150445Z 16011KT 26/15 A3016 RMK A01 T02610153  RH  051%=      5-min Rain = 0
KFR1 150446Z 15011KT 26/15 A3016 RMK A01 T02610153  RH  051%=      5-min Rain = 0
KFR1 150447Z 16011KT 26/15 A3016 RMK A01 T02600153  RH  052%=      5-min Rain = 0
KFR1 150448Z 16010KT 26/15 A3016 RMK A01 T02610154  RH  052%=      5-min Rain = 0
KFR1 150449Z 16011KT 26/15 A3016 RMK A01 T02600153  RH  052%=      5-min Rain = 0
KFR1 150450Z 16010KT 26/15 A3016 RMK A01 T02600153  RH  052%=      5-min Rain = 0
KFR1 150451Z 16011KT 26/15 A3016 RMK A01 T02600154  RH  052%=      5-min Rain = 0
KFR1 150452Z 16010G15KT 26/15 A3016 RMK A01 T02600153  RH  052%=      5-min Rain = 0
KFR1 150453Z 15009KT 26/15 A3016 RMK A01 T02600154  RH  052%=      5-min Rain = 0
KFR1 150454Z 16010G15KT 26/15 A3016 RMK A01 T02590154  RH  052%=      5-min Rain = 0
KFR1 150455Z 16010G15KT 26/15 A3016 RMK A01 T02590154  RH  052%=      5-min Rain = 0
KFR1 150456Z 16008KT 26/15 A3016 RMK A01 T02590154  RH  052%=      5-min Rain = 0
KFR1 150457Z 16009KT 26/15 A3016 RMK A01 T02590154  RH  052%=      5-min Rain = 0
KFR1 150458Z 15008KT 26/15 A3016 RMK A01 T02590154  RH  052%=      5-min Rain = 0
KFR1 150459Z 15009KT 26/15 A3016 RMK A01 T02590154  RH  052%=      5-min Rain = 0

Page generated in 0.1316 seconds.